<?xml version="1.0" encoding="UTF-8" standalone="no" ?>
<gpx xmlns="http://www.topografix.com/GPX/1/1" xmlns:xsi="http://www.w3.org/2001/XMLSchema-instance" xsi:schemaLocation="http://www.topografix.com/GPX/1/1 http://www.topografix.com/GPX/1/1/gpx.xsd" version="1.1" creator="VisuGPX - https://www.visugpx.com">
  <metadata>
    <name>grange</name>
    <desc><![CDATA[2008-07-10_tour-grange- filtered]]></desc>
  </metadata>
  <trk>
    <name><![CDATA[grange]]></name>
    <desc><![CDATA[2008-07-10_tour-grange- filtered]]></desc>
    <trkseg>
      <trkpt lat="46.28516" lon="6.78301">
        <ele>1261.871948</ele>
        <time>2008-07-10T09:15:49.000Z</time>
      </trkpt>
      <trkpt lat="46.28514" lon="6.78301">
        <ele>1262.359741</ele>
        <time>2008-07-10T09:15:53.001Z</time>
      </trkpt>
      <trkpt lat="46.28506" lon="6.78275">
        <ele>1261.871948</ele>
        <time>2008-07-10T09:15:58.003Z</time>
      </trkpt>
      <trkpt lat="46.28471" lon="6.78249">
        <ele>1263.304565</ele>
        <time>2008-07-10T09:16:13.002Z</time>
      </trkpt>
      <trkpt lat="46.28465" lon="6.78238">
        <ele>1265.712524</ele>
        <time>2008-07-10T09:16:17.996Z</time>
      </trkpt>
      <trkpt lat="46.28458" lon="6.78221">
        <ele>1265.712524</ele>
        <time>2008-07-10T09:16:24.001Z</time>
      </trkpt>
      <trkpt lat="46.28454" lon="6.78206">
        <ele>1267.14502</ele>
        <time>2008-07-10T09:16:29.997Z</time>
      </trkpt>
      <trkpt lat="46.28424" lon="6.78131">
        <ele>1273.393433</ele>
        <time>2008-07-10T09:17:03.002Z</time>
      </trkpt>
      <trkpt lat="46.28413" lon="6.78114">
        <ele>1274.856567</ele>
        <time>2008-07-10T09:17:11.996Z</time>
      </trkpt>
      <trkpt lat="46.28407" lon="6.78088">
        <ele>1276.28894</ele>
        <time>2008-07-10T09:17:23.004Z</time>
      </trkpt>
      <trkpt lat="46.28379" lon="6.78022">
        <ele>1281.562134</ele>
        <time>2008-07-10T09:18:00.000Z</time>
      </trkpt>
      <trkpt lat="46.28366" lon="6.78005">
        <ele>1283.969971</ele>
        <time>2008-07-10T09:18:12.001Z</time>
      </trkpt>
      <trkpt lat="46.2834" lon="6.77998">
        <ele>1286.37793</ele>
        <time>2008-07-10T09:18:29.998Z</time>
      </trkpt>
      <trkpt lat="46.28325" lon="6.77989">
        <ele>1288.298218</ele>
        <time>2008-07-10T09:18:41.999Z</time>
      </trkpt>
      <trkpt lat="46.28302" lon="6.77979">
        <ele>1291.193848</ele>
        <time>2008-07-10T09:18:59.996Z</time>
      </trkpt>
      <trkpt lat="46.28283" lon="6.77957">
        <ele>1294.546631</ele>
        <time>2008-07-10T09:19:17.000Z</time>
      </trkpt>
      <trkpt lat="46.28259" lon="6.77936">
        <ele>1297.92981</ele>
        <time>2008-07-10T09:19:35.999Z</time>
      </trkpt>
      <trkpt lat="46.28222" lon="6.7788">
        <ele>1302.71521</ele>
        <time>2008-07-10T09:20:12.002Z</time>
      </trkpt>
      <trkpt lat="46.28218" lon="6.77869">
        <ele>1303.690674</ele>
        <time>2008-07-10T09:20:17.998Z</time>
      </trkpt>
      <trkpt lat="46.28218" lon="6.77841">
        <ele>1306.098511</ele>
        <time>2008-07-10T09:20:29.999Z</time>
      </trkpt>
      <trkpt lat="46.28203" lon="6.77792">
        <ele>1309.938965</ele>
        <time>2008-07-10T09:20:54.001Z</time>
      </trkpt>
      <trkpt lat="46.28205" lon="6.77764">
        <ele>1311.859253</ele>
        <time>2008-07-10T09:21:06.002Z</time>
      </trkpt>
      <trkpt lat="46.28229" lon="6.77723">
        <ele>1316.187378</ele>
        <time>2008-07-10T09:21:30.004Z</time>
      </trkpt>
      <trkpt lat="46.283" lon="6.77665">
        <ele>1323.868286</ele>
        <time>2008-07-10T09:22:19.001Z</time>
      </trkpt>
      <trkpt lat="46.28304" lon="6.77642">
        <ele>1324.355957</ele>
        <time>2008-07-10T09:22:30.000Z</time>
      </trkpt>
      <trkpt lat="46.28289" lon="6.77605">
        <ele>1328.196533</ele>
        <time>2008-07-10T09:22:47.997Z</time>
      </trkpt>
      <trkpt lat="46.28289" lon="6.77593">
        <ele>1328.684204</ele>
        <time>2008-07-10T09:22:54.002Z</time>
      </trkpt>
      <trkpt lat="46.28293" lon="6.77584">
        <ele>1330.116699</ele>
        <time>2008-07-10T09:22:58.002Z</time>
      </trkpt>
      <trkpt lat="46.28304" lon="6.77571">
        <ele>1332.036987</ele>
        <time>2008-07-10T09:23:06.996Z</time>
      </trkpt>
      <trkpt lat="46.28308" lon="6.7756">
        <ele>1332.524536</ele>
        <time>2008-07-10T09:23:11.999Z</time>
      </trkpt>
      <trkpt lat="46.28302" lon="6.77543">
        <ele>1333.957153</ele>
        <time>2008-07-10T09:23:20.000Z</time>
      </trkpt>
      <trkpt lat="46.28295" lon="6.7753">
        <ele>1335.420166</ele>
        <time>2008-07-10T09:23:28.000Z</time>
      </trkpt>
      <trkpt lat="46.28274" lon="6.7752">
        <ele>1337.340454</ele>
        <time>2008-07-10T09:23:41.997Z</time>
      </trkpt>
      <trkpt lat="46.28235" lon="6.77515">
        <ele>1340.205566</ele>
        <time>2008-07-10T09:24:05.999Z</time>
      </trkpt>
      <trkpt lat="46.28227" lon="6.77507">
        <ele>1342.125732</ele>
        <time>2008-07-10T09:24:14.000Z</time>
      </trkpt>
      <trkpt lat="46.28222" lon="6.77494">
        <ele>1343.588867</ele>
        <time>2008-07-10T09:24:19.996Z</time>
      </trkpt>
      <trkpt lat="46.28222" lon="6.77487">
        <ele>1344.533813</ele>
        <time>2008-07-10T09:24:23.003Z</time>
      </trkpt>
      <trkpt lat="46.28214" lon="6.77455">
        <ele>1345.509033</ele>
        <time>2008-07-10T09:24:38.002Z</time>
      </trkpt>
      <trkpt lat="46.28212" lon="6.77453">
        <ele>1345.996826</ele>
        <time>2008-07-10T09:24:39.004Z</time>
      </trkpt>
      <trkpt lat="46.2821" lon="6.77442">
        <ele>1347.429443</ele>
        <time>2008-07-10T09:24:43.998Z</time>
      </trkpt>
      <trkpt lat="46.28207" lon="6.77438">
        <ele>1347.916992</ele>
        <time>2008-07-10T09:24:46.996Z</time>
      </trkpt>
      <trkpt lat="46.28205" lon="6.77425">
        <ele>1350.294556</ele>
        <time>2008-07-10T09:24:51.998Z</time>
      </trkpt>
      <trkpt lat="46.28192" lon="6.7738">
        <ele>1351.269775</ele>
        <time>2008-07-10T09:25:12.000Z</time>
      </trkpt>
      <trkpt lat="46.28207" lon="6.77286">
        <ele>1353.190063</ele>
        <time>2008-07-10T09:25:39.000Z</time>
      </trkpt>
      <trkpt lat="46.28216" lon="6.77243">
        <ele>1357.518188</ele>
        <time>2008-07-10T09:25:52.997Z</time>
      </trkpt>
      <trkpt lat="46.28225" lon="6.77226">
        <ele>1358.005859</ele>
        <time>2008-07-10T09:26:00.004Z</time>
      </trkpt>
      <trkpt lat="46.28233" lon="6.77189">
        <ele>1357.518188</ele>
        <time>2008-07-10T09:26:11.996Z</time>
      </trkpt>
      <trkpt lat="46.28235" lon="6.77166">
        <ele>1357.518188</ele>
        <time>2008-07-10T09:26:18.001Z</time>
      </trkpt>
      <trkpt lat="46.28225" lon="6.77108">
        <ele>1358.950806</ele>
        <time>2008-07-10T09:26:24.999Z</time>
      </trkpt>
      <trkpt lat="46.2824" lon="6.77045">
        <ele>1361.358643</ele>
        <time>2008-07-10T09:26:45.001Z</time>
      </trkpt>
      <trkpt lat="46.28253" lon="6.77007">
        <ele>1364.254272</ele>
        <time>2008-07-10T09:27:00.000Z</time>
      </trkpt>
      <trkpt lat="46.28265" lon="6.76983">
        <ele>1367.607056</ele>
        <time>2008-07-10T09:27:09.996Z</time>
      </trkpt>
      <trkpt lat="46.28272" lon="6.76962">
        <ele>1367.607056</ele>
        <time>2008-07-10T09:27:17.997Z</time>
      </trkpt>
      <trkpt lat="46.28274" lon="6.76949">
        <ele>1367.607056</ele>
        <time>2008-07-10T09:27:23.000Z</time>
      </trkpt>
      <trkpt lat="46.28272" lon="6.76912">
        <ele>1370.990356</ele>
        <time>2008-07-10T09:27:35.001Z</time>
      </trkpt>
      <trkpt lat="46.28253" lon="6.76826">
        <ele>1371.935303</ele>
        <time>2008-07-10T09:27:59.003Z</time>
      </trkpt>
      <trkpt lat="46.28207" lon="6.76766">
        <ele>1377.696045</ele>
        <time>2008-07-10T09:28:23.998Z</time>
      </trkpt>
      <trkpt lat="46.2819" lon="6.76734">
        <ele>1378.183716</ele>
        <time>2008-07-10T09:28:35.999Z</time>
      </trkpt>
      <trkpt lat="46.28156" lon="6.76636">
        <ele>1382.999512</ele>
        <time>2008-07-10T09:29:12.002Z</time>
      </trkpt>
      <trkpt lat="46.2815" lon="6.76608">
        <ele>1384.9198</ele>
        <time>2008-07-10T09:29:21.998Z</time>
      </trkpt>
      <trkpt lat="46.2813" lon="6.76539">
        <ele>1387.327759</ele>
        <time>2008-07-10T09:29:50.001Z</time>
      </trkpt>
      <trkpt lat="46.2813" lon="6.76533">
        <ele>1387.327759</ele>
        <time>2008-07-10T09:29:51.996Z</time>
      </trkpt>
      <trkpt lat="46.28122" lon="6.76505">
        <ele>1390.680542</ele>
        <time>2008-07-10T09:30:05.000Z</time>
      </trkpt>
      <trkpt lat="46.28109" lon="6.76466">
        <ele>1394.063843</ele>
        <time>2008-07-10T09:30:23.999Z</time>
      </trkpt>
      <trkpt lat="46.28092" lon="6.76451">
        <ele>1395.008545</ele>
        <time>2008-07-10T09:30:36.000Z</time>
      </trkpt>
      <trkpt lat="46.28089" lon="6.76442">
        <ele>1395.496338</ele>
        <time>2008-07-10T09:30:40.000Z</time>
      </trkpt>
      <trkpt lat="46.28083" lon="6.7643">
        <ele>1396.928955</ele>
        <time>2008-07-10T09:30:46.999Z</time>
      </trkpt>
      <trkpt lat="46.28062" lon="6.76406">
        <ele>1401.744751</ele>
        <time>2008-07-10T09:31:05.998Z</time>
      </trkpt>
      <trkpt lat="46.28051" lon="6.76384">
        <ele>1401.744751</ele>
        <time>2008-07-10T09:31:17.999Z</time>
      </trkpt>
      <trkpt lat="46.28034" lon="6.76357">
        <ele>1402.689575</ele>
        <time>2008-07-10T09:31:30.000Z</time>
      </trkpt>
      <trkpt lat="46.28025" lon="6.76318">
        <ele>1403.177368</ele>
        <time>2008-07-10T09:31:40.999Z</time>
      </trkpt>
      <trkpt lat="46.27999" lon="6.76303">
        <ele>1401.744751</ele>
        <time>2008-07-10T09:31:46.001Z</time>
      </trkpt>
      <trkpt lat="46.27995" lon="6.76269">
        <ele>1401.744751</ele>
        <time>2008-07-10T09:31:51.004Z</time>
      </trkpt>
      <trkpt lat="46.27984" lon="6.76234">
        <ele>1400.769409</ele>
        <time>2008-07-10T09:31:57.000Z</time>
      </trkpt>
      <trkpt lat="46.27984" lon="6.76206">
        <ele>1400.312256</ele>
        <time>2008-07-10T09:32:01.000Z</time>
      </trkpt>
      <trkpt lat="46.27986" lon="6.76185">
        <ele>1399.336792</ele>
        <time>2008-07-10T09:32:03.998Z</time>
      </trkpt>
      <trkpt lat="46.27995" lon="6.76172">
        <ele>1397.904175</ele>
        <time>2008-07-10T09:32:07.999Z</time>
      </trkpt>
      <trkpt lat="46.28008" lon="6.76148">
        <ele>1396.441162</ele>
        <time>2008-07-10T09:32:11.999Z</time>
      </trkpt>
      <trkpt lat="46.28016" lon="6.7609">
        <ele>1391.168213</ele>
        <time>2008-07-10T09:32:18.004Z</time>
      </trkpt>
      <trkpt lat="46.28016" lon="6.75962">
        <ele>1391.655762</ele>
        <time>2008-07-10T09:32:34.999Z</time>
      </trkpt>
      <trkpt lat="46.28008" lon="6.75927">
        <ele>1391.655762</ele>
        <time>2008-07-10T09:32:41.997Z</time>
      </trkpt>
      <trkpt lat="46.28004" lon="6.75792">
        <ele>1389.735596</ele>
        <time>2008-07-10T09:32:59.001Z</time>
      </trkpt>
      <trkpt lat="46.27995" lon="6.75771">
        <ele>1390.680542</ele>
        <time>2008-07-10T09:33:04.997Z</time>
      </trkpt>
      <trkpt lat="46.27986" lon="6.75756">
        <ele>1390.680542</ele>
        <time>2008-07-10T09:33:09.999Z</time>
      </trkpt>
      <trkpt lat="46.27963" lon="6.75728">
        <ele>1391.655762</ele>
        <time>2008-07-10T09:33:26.001Z</time>
      </trkpt>
      <trkpt lat="46.27965" lon="6.7573">
        <ele>1390.680542</ele>
        <time>2008-07-10T09:34:01.001Z</time>
      </trkpt>
      <trkpt lat="46.27965" lon="6.75734">
        <ele>1392.600708</ele>
        <time>2008-07-10T09:34:59.002Z</time>
      </trkpt>
      <trkpt lat="46.27965" lon="6.75732">
        <ele>1392.600708</ele>
        <time>2008-07-10T09:35:10.000Z</time>
      </trkpt>
      <trkpt lat="46.27944" lon="6.75711">
        <ele>1393.088379</ele>
        <time>2008-07-10T09:35:26.002Z</time>
      </trkpt>
      <trkpt lat="46.27907" lon="6.75663">
        <ele>1390.680542</ele>
        <time>2008-07-10T09:35:34.002Z</time>
      </trkpt>
      <trkpt lat="46.27888" lon="6.75625">
        <ele>1392.113037</ele>
        <time>2008-07-10T09:35:42.996Z</time>
      </trkpt>
      <trkpt lat="46.27881" lon="6.75603">
        <ele>1393.088379</ele>
        <time>2008-07-10T09:35:51.999Z</time>
      </trkpt>
      <trkpt lat="46.27847" lon="6.75535">
        <ele>1395.496338</ele>
        <time>2008-07-10T09:36:17.004Z</time>
      </trkpt>
      <trkpt lat="46.27841" lon="6.75511">
        <ele>1398.849121</ele>
        <time>2008-07-10T09:36:24.002Z</time>
      </trkpt>
      <trkpt lat="46.27832" lon="6.75494">
        <ele>1399.824463</ele>
        <time>2008-07-10T09:36:29.998Z</time>
      </trkpt>
      <trkpt lat="46.27821" lon="6.7546">
        <ele>1402.689575</ele>
        <time>2008-07-10T09:36:41.999Z</time>
      </trkpt>
      <trkpt lat="46.27819" lon="6.75442">
        <ele>1404.152588</ele>
        <time>2008-07-10T09:36:48.004Z</time>
      </trkpt>
      <trkpt lat="46.2783" lon="6.75415">
        <ele>1404.152588</ele>
        <time>2008-07-10T09:36:58.000Z</time>
      </trkpt>
      <trkpt lat="46.2783" lon="6.75387">
        <ele>1404.609741</ele>
        <time>2008-07-10T09:37:04.999Z</time>
      </trkpt>
      <trkpt lat="46.27804" lon="6.7529">
        <ele>1403.177368</ele>
        <time>2008-07-10T09:37:25.000Z</time>
      </trkpt>
      <trkpt lat="46.27783" lon="6.75241">
        <ele>1399.824463</ele>
        <time>2008-07-10T09:37:35.999Z</time>
      </trkpt>
      <trkpt lat="46.27776" lon="6.7523">
        <ele>1399.336792</ele>
        <time>2008-07-10T09:37:38.997Z</time>
      </trkpt>
      <trkpt lat="46.27735" lon="6.75179">
        <ele>1396.441162</ele>
        <time>2008-07-10T09:37:50.998Z</time>
      </trkpt>
      <trkpt lat="46.27714" lon="6.75131">
        <ele>1391.168213</ele>
        <time>2008-07-10T09:38:00.001Z</time>
      </trkpt>
      <trkpt lat="46.27699" lon="6.75121">
        <ele>1391.655762</ele>
        <time>2008-07-10T09:38:09.004Z</time>
      </trkpt>
      <trkpt lat="46.27707" lon="6.75116">
        <ele>1390.680542</ele>
        <time>2008-07-10T09:38:19.000Z</time>
      </trkpt>
      <trkpt lat="46.27699" lon="6.75091">
        <ele>1389.735596</ele>
        <time>2008-07-10T09:38:25.999Z</time>
      </trkpt>
      <trkpt lat="46.2769" lon="6.75071">
        <ele>1389.735596</ele>
        <time>2008-07-10T09:38:29.999Z</time>
      </trkpt>
      <trkpt lat="46.27656" lon="6.75048">
        <ele>1388.760132</ele>
        <time>2008-07-10T09:38:39.002Z</time>
      </trkpt>
      <trkpt lat="46.27626" lon="6.7505">
        <ele>1387.81543</ele>
        <time>2008-07-10T09:38:47.003Z</time>
      </trkpt>
      <trkpt lat="46.27609" lon="6.75045">
        <ele>1388.272583</ele>
        <time>2008-07-10T09:38:52.999Z</time>
      </trkpt>
      <trkpt lat="46.27581" lon="6.7505">
        <ele>1392.113037</ele>
        <time>2008-07-10T09:39:06.002Z</time>
      </trkpt>
      <trkpt lat="46.27559" lon="6.7505">
        <ele>1394.520996</ele>
        <time>2008-07-10T09:39:27.999Z</time>
      </trkpt>
      <trkpt lat="46.27525" lon="6.75022">
        <ele>1400.769409</ele>
        <time>2008-07-10T09:39:49.003Z</time>
      </trkpt>
      <trkpt lat="46.27517" lon="6.75013">
        <ele>1401.744751</ele>
        <time>2008-07-10T09:39:54.999Z</time>
      </trkpt>
      <trkpt lat="46.27499" lon="6.74988">
        <ele>1401.744751</ele>
        <time>2008-07-10T09:40:05.998Z</time>
      </trkpt>
      <trkpt lat="46.27497" lon="6.74981">
        <ele>1401.744751</ele>
        <time>2008-07-10T09:40:08.003Z</time>
      </trkpt>
      <trkpt lat="46.27465" lon="6.74953">
        <ele>1404.609741</ele>
        <time>2008-07-10T09:40:21.999Z</time>
      </trkpt>
      <trkpt lat="46.27459" lon="6.74936">
        <ele>1405.585205</ele>
        <time>2008-07-10T09:40:28.998Z</time>
      </trkpt>
      <trkpt lat="46.27459" lon="6.74889">
        <ele>1400.769409</ele>
        <time>2008-07-10T09:40:43.997Z</time>
      </trkpt>
      <trkpt lat="46.27461" lon="6.74878">
        <ele>1397.416626</ele>
        <time>2008-07-10T09:40:47.004Z</time>
      </trkpt>
      <trkpt lat="46.27469" lon="6.74852">
        <ele>1395.008545</ele>
        <time>2008-07-10T09:40:51.004Z</time>
      </trkpt>
      <trkpt lat="46.27484" lon="6.74831">
        <ele>1392.113037</ele>
        <time>2008-07-10T09:40:55.004Z</time>
      </trkpt>
      <trkpt lat="46.27497" lon="6.74792">
        <ele>1389.735596</ele>
        <time>2008-07-10T09:40:59.998Z</time>
      </trkpt>
      <trkpt lat="46.27504" lon="6.74762">
        <ele>1386.839966</ele>
        <time>2008-07-10T09:41:02.996Z</time>
      </trkpt>
      <trkpt lat="46.27523" lon="6.7473">
        <ele>1385.864624</ele>
        <time>2008-07-10T09:41:06.996Z</time>
      </trkpt>
      <trkpt lat="46.27534" lon="6.74719">
        <ele>1385.407349</ele>
        <time>2008-07-10T09:41:09.001Z</time>
      </trkpt>
      <trkpt lat="46.27581" lon="6.74685">
        <ele>1384.9198</ele>
        <time>2008-07-10T09:41:18.004Z</time>
      </trkpt>
      <trkpt lat="46.27589" lon="6.74676">
        <ele>1383.944458</ele>
        <time>2008-07-10T09:41:20.000Z</time>
      </trkpt>
      <trkpt lat="46.27624" lon="6.74625">
        <ele>1385.864624</ele>
        <time>2008-07-10T09:41:32.001Z</time>
      </trkpt>
      <trkpt lat="46.27641" lon="6.74586">
        <ele>1387.81543</ele>
        <time>2008-07-10T09:41:42.999Z</time>
      </trkpt>
      <trkpt lat="46.27611" lon="6.7449">
        <ele>1390.192749</ele>
        <time>2008-07-10T09:42:05.999Z</time>
      </trkpt>
      <trkpt lat="46.27577" lon="6.7441">
        <ele>1389.735596</ele>
        <time>2008-07-10T09:42:23.003Z</time>
      </trkpt>
      <trkpt lat="46.27572" lon="6.74395">
        <ele>1389.247925</ele>
        <time>2008-07-10T09:42:26.001Z</time>
      </trkpt>
      <trkpt lat="46.27557" lon="6.74271">
        <ele>1390.680542</ele>
        <time>2008-07-10T09:42:47.998Z</time>
      </trkpt>
      <trkpt lat="46.27551" lon="6.74237">
        <ele>1390.680542</ele>
        <time>2008-07-10T09:42:54.003Z</time>
      </trkpt>
      <trkpt lat="46.27529" lon="6.74166">
        <ele>1391.655762</ele>
        <time>2008-07-10T09:43:06.004Z</time>
      </trkpt>
      <trkpt lat="46.27519" lon="6.74097">
        <ele>1392.113037</ele>
        <time>2008-07-10T09:43:17.996Z</time>
      </trkpt>
      <trkpt lat="46.27504" lon="6.74046">
        <ele>1395.496338</ele>
        <time>2008-07-10T09:43:32.002Z</time>
      </trkpt>
      <trkpt lat="46.27484" lon="6.74001">
        <ele>1397.416626</ele>
        <time>2008-07-10T09:43:48.003Z</time>
      </trkpt>
      <trkpt lat="46.27471" lon="6.73966">
        <ele>1398.361328</ele>
        <time>2008-07-10T09:44:00.004Z</time>
      </trkpt>
      <trkpt lat="46.27476" lon="6.73865">
        <ele>1394.520996</ele>
        <time>2008-07-10T09:44:31.004Z</time>
      </trkpt>
      <trkpt lat="46.27474" lon="6.73848">
        <ele>1391.168213</ele>
        <time>2008-07-10T09:44:39.998Z</time>
      </trkpt>
      <trkpt lat="46.27467" lon="6.73837">
        <ele>1388.760132</ele>
        <time>2008-07-10T09:44:45.001Z</time>
      </trkpt>
      <trkpt lat="46.27456" lon="6.7384">
        <ele>1386.839966</ele>
        <time>2008-07-10T09:44:50.997Z</time>
      </trkpt>
      <trkpt lat="46.27448" lon="6.73837">
        <ele>1385.407349</ele>
        <time>2008-07-10T09:44:54.004Z</time>
      </trkpt>
      <trkpt lat="46.27444" lon="6.73833">
        <ele>1382.999512</ele>
        <time>2008-07-10T09:44:57.002Z</time>
      </trkpt>
      <trkpt lat="46.27424" lon="6.73822">
        <ele>1379.616211</ele>
        <time>2008-07-10T09:45:04.000Z</time>
      </trkpt>
      <trkpt lat="46.2742" lon="6.7381">
        <ele>1378.671387</ele>
        <time>2008-07-10T09:45:09.996Z</time>
      </trkpt>
      <trkpt lat="46.27418" lon="6.73795">
        <ele>1375.288086</ele>
        <time>2008-07-10T09:45:17.004Z</time>
      </trkpt>
      <trkpt lat="46.27398" lon="6.73739">
        <ele>1364.254272</ele>
        <time>2008-07-10T09:45:32.003Z</time>
      </trkpt>
      <trkpt lat="46.27392" lon="6.73707">
        <ele>1360.413818</ele>
        <time>2008-07-10T09:45:39.001Z</time>
      </trkpt>
      <trkpt lat="46.27381" lon="6.73683">
        <ele>1358.005859</ele>
        <time>2008-07-10T09:45:44.004Z</time>
      </trkpt>
      <trkpt lat="46.27377" lon="6.73659">
        <ele>1354.165405</ele>
        <time>2008-07-10T09:45:48.004Z</time>
      </trkpt>
      <trkpt lat="46.27358" lon="6.73595">
        <ele>1345.509033</ele>
        <time>2008-07-10T09:46:00.998Z</time>
      </trkpt>
      <trkpt lat="46.27349" lon="6.73571">
        <ele>1343.588867</ele>
        <time>2008-07-10T09:46:06.001Z</time>
      </trkpt>
      <trkpt lat="46.27326" lon="6.73522">
        <ele>1333.957153</ele>
        <time>2008-07-10T09:46:15.997Z</time>
      </trkpt>
      <trkpt lat="46.27319" lon="6.73513">
        <ele>1333.5</ele>
        <time>2008-07-10T09:46:18.002Z</time>
      </trkpt>
      <trkpt lat="46.27308" lon="6.73505">
        <ele>1333.5</ele>
        <time>2008-07-10T09:46:21.000Z</time>
      </trkpt>
      <trkpt lat="46.27291" lon="6.7349">
        <ele>1330.116699</ele>
        <time>2008-07-10T09:46:25.000Z</time>
      </trkpt>
      <trkpt lat="46.27289" lon="6.73481">
        <ele>1328.684204</ele>
        <time>2008-07-10T09:46:26.996Z</time>
      </trkpt>
      <trkpt lat="46.27289" lon="6.73447">
        <ele>1327.70874</ele>
        <time>2008-07-10T09:46:37.001Z</time>
      </trkpt>
      <trkpt lat="46.27287" lon="6.73445">
        <ele>1327.251587</ele>
        <time>2008-07-10T09:46:39.999Z</time>
      </trkpt>
      <trkpt lat="46.27285" lon="6.73434">
        <ele>1326.763916</ele>
        <time>2008-07-10T09:46:58.999Z</time>
      </trkpt>
      <trkpt lat="46.27276" lon="6.73432">
        <ele>1323.380615</ele>
        <time>2008-07-10T09:47:05.997Z</time>
      </trkpt>
      <trkpt lat="46.27263" lon="6.73445">
        <ele>1321.003174</ele>
        <time>2008-07-10T09:47:16.996Z</time>
      </trkpt>
      <trkpt lat="46.27223" lon="6.73447">
        <ele>1308.018677</ele>
        <time>2008-07-10T09:47:40.998Z</time>
      </trkpt>
      <trkpt lat="46.27216" lon="6.73453">
        <ele>1306.098511</ele>
        <time>2008-07-10T09:47:46.000Z</time>
      </trkpt>
      <trkpt lat="46.27173" lon="6.73468">
        <ele>1293.601685</ele>
        <time>2008-07-10T09:48:14.996Z</time>
      </trkpt>
      <trkpt lat="46.27158" lon="6.73479">
        <ele>1289.730713</ele>
        <time>2008-07-10T09:48:22.003Z</time>
      </trkpt>
      <trkpt lat="46.2715" lon="6.7349">
        <ele>1287.353271</ele>
        <time>2008-07-10T09:48:27.999Z</time>
      </trkpt>
      <trkpt lat="46.27145" lon="6.7349">
        <ele>1287.353271</ele>
        <time>2008-07-10T09:48:30.997Z</time>
      </trkpt>
      <trkpt lat="46.27122" lon="6.73464">
        <ele>1277.233887</ele>
        <time>2008-07-10T09:48:53.004Z</time>
      </trkpt>
      <trkpt lat="46.27117" lon="6.73466">
        <ele>1275.801392</ele>
        <time>2008-07-10T09:48:54.999Z</time>
      </trkpt>
      <trkpt lat="46.27105" lon="6.73477">
        <ele>1274.856567</ele>
        <time>2008-07-10T09:48:59.000Z</time>
      </trkpt>
      <trkpt lat="46.27094" lon="6.73483">
        <ele>1270.985474</ele>
        <time>2008-07-10T09:49:03.000Z</time>
      </trkpt>
      <trkpt lat="46.2707" lon="6.73518">
        <ele>1264.737061</ele>
        <time>2008-07-10T09:49:16.003Z</time>
      </trkpt>
      <trkpt lat="46.27055" lon="6.73526">
        <ele>1261.384277</ele>
        <time>2008-07-10T09:49:21.999Z</time>
      </trkpt>
      <trkpt lat="46.27055" lon="6.73528">
        <ele>1261.384277</ele>
        <time>2008-07-10T09:49:23.002Z</time>
      </trkpt>
      <trkpt lat="46.2704" lon="6.73531">
        <ele>1256.568481</ele>
        <time>2008-07-10T09:49:31.996Z</time>
      </trkpt>
      <trkpt lat="46.27038" lon="6.73528">
        <ele>1256.568481</ele>
        <time>2008-07-10T09:49:32.998Z</time>
      </trkpt>
      <trkpt lat="46.27023" lon="6.73524">
        <ele>1251.783081</ele>
        <time>2008-07-10T09:49:39.003Z</time>
      </trkpt>
      <trkpt lat="46.26999" lon="6.73526">
        <ele>1245.046997</ele>
        <time>2008-07-10T09:49:47.004Z</time>
      </trkpt>
      <trkpt lat="46.26995" lon="6.73528">
        <ele>1243.614502</ele>
        <time>2008-07-10T09:49:48.999Z</time>
      </trkpt>
      <trkpt lat="46.26969" lon="6.73563">
        <ele>1237.823364</ele>
        <time>2008-07-10T09:49:59.998Z</time>
      </trkpt>
      <trkpt lat="46.26963" lon="6.73541">
        <ele>1236.390747</ele>
        <time>2008-07-10T09:50:05.001Z</time>
      </trkpt>
      <trkpt lat="46.26959" lon="6.73505">
        <ele>1235.903076</ele>
        <time>2008-07-10T09:50:10.997Z</time>
      </trkpt>
      <trkpt lat="46.26976" lon="6.73479">
        <ele>1234.470459</ele>
        <time>2008-07-10T09:50:17.002Z</time>
      </trkpt>
      <trkpt lat="46.26982" lon="6.73466">
        <ele>1232.550293</ele>
        <time>2008-07-10T09:50:24.000Z</time>
      </trkpt>
      <trkpt lat="46.26941" lon="6.73481">
        <ele>1229.19751</ele>
        <time>2008-07-10T09:50:33.996Z</time>
      </trkpt>
      <trkpt lat="46.26933" lon="6.73496">
        <ele>1227.734375</ele>
        <time>2008-07-10T09:50:37.003Z</time>
      </trkpt>
      <trkpt lat="46.26931" lon="6.73546">
        <ele>1226.789551</ele>
        <time>2008-07-10T09:50:42.999Z</time>
      </trkpt>
      <trkpt lat="46.26909" lon="6.73593">
        <ele>1224.869263</ele>
        <time>2008-07-10T09:50:49.004Z</time>
      </trkpt>
      <trkpt lat="46.26899" lon="6.73606">
        <ele>1224.381592</ele>
        <time>2008-07-10T09:50:51.000Z</time>
      </trkpt>
      <trkpt lat="46.26879" lon="6.73621">
        <ele>1223.893921</ele>
        <time>2008-07-10T09:50:53.998Z</time>
      </trkpt>
      <trkpt lat="46.26843" lon="6.73655">
        <ele>1223.40625</ele>
        <time>2008-07-10T09:51:00.996Z</time>
      </trkpt>
      <trkpt lat="46.26826" lon="6.73694">
        <ele>1223.40625</ele>
        <time>2008-07-10T09:51:05.999Z</time>
      </trkpt>
      <trkpt lat="46.26813" lon="6.73732">
        <ele>1224.381592</ele>
        <time>2008-07-10T09:51:11.002Z</time>
      </trkpt>
      <trkpt lat="46.26804" lon="6.73749">
        <ele>1224.869263</ele>
        <time>2008-07-10T09:51:14.000Z</time>
      </trkpt>
      <trkpt lat="46.26796" lon="6.73773">
        <ele>1226.789551</ele>
        <time>2008-07-10T09:51:19.002Z</time>
      </trkpt>
      <trkpt lat="46.26776" lon="6.7379">
        <ele>1227.734375</ele>
        <time>2008-07-10T09:51:27.003Z</time>
      </trkpt>
      <trkpt lat="46.26765" lon="6.73792">
        <ele>1229.19751</ele>
        <time>2008-07-10T09:51:31.997Z</time>
      </trkpt>
      <trkpt lat="46.26735" lon="6.73831">
        <ele>1230.630005</ele>
        <time>2008-07-10T09:51:46.002Z</time>
      </trkpt>
      <trkpt lat="46.2672" lon="6.73857">
        <ele>1231.117676</ele>
        <time>2008-07-10T09:51:51.998Z</time>
      </trkpt>
      <trkpt lat="46.26705" lon="6.73893">
        <ele>1230.630005</ele>
        <time>2008-07-10T09:51:58.997Z</time>
      </trkpt>
      <trkpt lat="46.26701" lon="6.73908">
        <ele>1231.117676</ele>
        <time>2008-07-10T09:52:02.004Z</time>
      </trkpt>
      <trkpt lat="46.26682" lon="6.7394">
        <ele>1232.550293</ele>
        <time>2008-07-10T09:52:12.000Z</time>
      </trkpt>
      <trkpt lat="46.26669" lon="6.73966">
        <ele>1234.470459</ele>
        <time>2008-07-10T09:52:18.998Z</time>
      </trkpt>
      <trkpt lat="46.26654" lon="6.74013">
        <ele>1235.903076</ele>
        <time>2008-07-10T09:52:29.997Z</time>
      </trkpt>
      <trkpt lat="46.26652" lon="6.74011">
        <ele>1236.390747</ele>
        <time>2008-07-10T09:52:52.997Z</time>
      </trkpt>
      <trkpt lat="46.26639" lon="6.74043">
        <ele>1236.390747</ele>
        <time>2008-07-10T09:52:59.002Z</time>
      </trkpt>
      <trkpt lat="46.26613" lon="6.74131">
        <ele>1234.470459</ele>
        <time>2008-07-10T09:53:11.996Z</time>
      </trkpt>
      <trkpt lat="46.26609" lon="6.7417">
        <ele>1234.470459</ele>
        <time>2008-07-10T09:53:18.001Z</time>
      </trkpt>
      <trkpt lat="46.26611" lon="6.74176">
        <ele>1234.470459</ele>
        <time>2008-07-10T09:53:19.003Z</time>
      </trkpt>
      <trkpt lat="46.26602" lon="6.74202">
        <ele>1234.470459</ele>
        <time>2008-07-10T09:53:23.004Z</time>
      </trkpt>
      <trkpt lat="46.26587" lon="6.74232">
        <ele>1233.037842</ele>
        <time>2008-07-10T09:53:27.997Z</time>
      </trkpt>
      <trkpt lat="46.26555" lon="6.74273">
        <ele>1233.495117</ele>
        <time>2008-07-10T09:53:38.996Z</time>
      </trkpt>
      <trkpt lat="46.26553" lon="6.74307">
        <ele>1234.95813</ele>
        <time>2008-07-10T09:53:54.004Z</time>
      </trkpt>
      <trkpt lat="46.26547" lon="6.74322">
        <ele>1234.95813</ele>
        <time>2008-07-10T09:54:00.000Z</time>
      </trkpt>
      <trkpt lat="46.26542" lon="6.74352">
        <ele>1234.95813</ele>
        <time>2008-07-10T09:54:12.001Z</time>
      </trkpt>
      <trkpt lat="46.2654" lon="6.74395">
        <ele>1238.310913</ele>
        <time>2008-07-10T09:54:29.998Z</time>
      </trkpt>
      <trkpt lat="46.26532" lon="6.74428">
        <ele>1241.206543</ele>
        <time>2008-07-10T09:54:45.999Z</time>
      </trkpt>
      <trkpt lat="46.2651" lon="6.7446">
        <ele>1245.991943</ele>
        <time>2008-07-10T09:55:06.001Z</time>
      </trkpt>
      <trkpt lat="46.26493" lon="6.74498">
        <ele>1249.862915</ele>
        <time>2008-07-10T09:55:23.998Z</time>
      </trkpt>
      <trkpt lat="46.2645" lon="6.74543">
        <ele>1254.19104</ele>
        <time>2008-07-10T09:55:53.996Z</time>
      </trkpt>
      <trkpt lat="46.26439" lon="6.74565">
        <ele>1255.623657</ele>
        <time>2008-07-10T09:56:05.997Z</time>
      </trkpt>
      <trkpt lat="46.26433" lon="6.74601">
        <ele>1256.568481</ele>
        <time>2008-07-10T09:56:24.003Z</time>
      </trkpt>
      <trkpt lat="46.26433" lon="6.74631">
        <ele>1256.568481</ele>
        <time>2008-07-10T09:56:36.004Z</time>
      </trkpt>
      <trkpt lat="46.26429" lon="6.74655">
        <ele>1258.488647</ele>
        <time>2008-07-10T09:56:47.996Z</time>
      </trkpt>
      <trkpt lat="46.26429" lon="6.74679">
        <ele>1262.359741</ele>
        <time>2008-07-10T09:57:00.999Z</time>
      </trkpt>
      <trkpt lat="46.26424" lon="6.747">
        <ele>1265.224854</ele>
        <time>2008-07-10T09:57:11.998Z</time>
      </trkpt>
      <trkpt lat="46.26422" lon="6.74734">
        <ele>1269.552979</ele>
        <time>2008-07-10T09:57:30.004Z</time>
      </trkpt>
      <trkpt lat="46.26424" lon="6.74756">
        <ele>1270.040527</ele>
        <time>2008-07-10T09:57:41.996Z</time>
      </trkpt>
      <trkpt lat="46.26422" lon="6.7476">
        <ele>1270.52832</ele>
        <time>2008-07-10T09:57:45.003Z</time>
      </trkpt>
      <trkpt lat="46.26424" lon="6.74764">
        <ele>1270.52832</ele>
        <time>2008-07-10T09:57:46.999Z</time>
      </trkpt>
      <trkpt lat="46.2642" lon="6.74809">
        <ele>1276.776733</ele>
        <time>2008-07-10T09:58:12.003Z</time>
      </trkpt>
      <trkpt lat="46.26407" lon="6.7485">
        <ele>1283.025146</ele>
        <time>2008-07-10T09:58:35.996Z</time>
      </trkpt>
      <trkpt lat="46.2639" lon="6.74876">
        <ele>1285.890137</ele>
        <time>2008-07-10T09:58:54.002Z</time>
      </trkpt>
      <trkpt lat="46.26377" lon="6.74887">
        <ele>1288.298218</ele>
        <time>2008-07-10T09:59:06.003Z</time>
      </trkpt>
      <trkpt lat="46.26369" lon="6.74897">
        <ele>1288.785767</ele>
        <time>2008-07-10T09:59:37.003Z</time>
      </trkpt>
      <trkpt lat="46.26351" lon="6.74897">
        <ele>1288.298218</ele>
        <time>2008-07-10T09:59:48.002Z</time>
      </trkpt>
      <trkpt lat="46.26289" lon="6.74915">
        <ele>1286.37793</ele>
        <time>2008-07-10T10:00:03.001Z</time>
      </trkpt>
      <trkpt lat="46.26266" lon="6.74917">
        <ele>1285.890137</ele>
        <time>2008-07-10T10:00:07.001Z</time>
      </trkpt>
      <trkpt lat="46.26244" lon="6.74934">
        <ele>1286.37793</ele>
        <time>2008-07-10T10:00:12.004Z</time>
      </trkpt>
      <trkpt lat="46.26205" lon="6.74985">
        <ele>1284.457764</ele>
        <time>2008-07-10T10:00:23.003Z</time>
      </trkpt>
      <trkpt lat="46.26182" lon="6.75009">
        <ele>1283.025146</ele>
        <time>2008-07-10T10:00:28.999Z</time>
      </trkpt>
      <trkpt lat="46.26165" lon="6.75007">
        <ele>1283.4823</ele>
        <time>2008-07-10T10:00:31.997Z</time>
      </trkpt>
      <trkpt lat="46.26115" lon="6.74992">
        <ele>1285.432983</ele>
        <time>2008-07-10T10:00:47.998Z</time>
      </trkpt>
      <trkpt lat="46.26064" lon="6.75">
        <ele>1285.432983</ele>
        <time>2008-07-10T10:01:06.997Z</time>
      </trkpt>
      <trkpt lat="46.26064" lon="6.74996">
        <ele>1284.945435</ele>
        <time>2008-07-10T10:01:36.002Z</time>
      </trkpt>
      <trkpt lat="46.26049" lon="6.74996">
        <ele>1286.37793</ele>
        <time>2008-07-10T10:01:48.003Z</time>
      </trkpt>
      <trkpt lat="46.26057" lon="6.75003">
        <ele>1287.353271</ele>
        <time>2008-07-10T10:01:56.004Z</time>
      </trkpt>
      <trkpt lat="46.26085" lon="6.75013">
        <ele>1290.218384</ele>
        <time>2008-07-10T10:02:18.001Z</time>
      </trkpt>
      <trkpt lat="46.26094" lon="6.75013">
        <ele>1291.681396</ele>
        <time>2008-07-10T10:02:24.999Z</time>
      </trkpt>
      <trkpt lat="46.26102" lon="6.75024">
        <ele>1293.114014</ele>
        <time>2008-07-10T10:02:33.000Z</time>
      </trkpt>
      <trkpt lat="46.26092" lon="6.75045">
        <ele>1294.546631</ele>
        <time>2008-07-10T10:02:46.997Z</time>
      </trkpt>
      <trkpt lat="46.26068" lon="6.75067">
        <ele>1297.442261</ele>
        <time>2008-07-10T10:03:05.996Z</time>
      </trkpt>
      <trkpt lat="46.26055" lon="6.75086">
        <ele>1298.874634</ele>
        <time>2008-07-10T10:03:17.997Z</time>
      </trkpt>
      <trkpt lat="46.26047" lon="6.75108">
        <ele>1300.307251</ele>
        <time>2008-07-10T10:03:31.000Z</time>
      </trkpt>
      <trkpt lat="46.26049" lon="6.75108">
        <ele>1300.307251</ele>
        <time>2008-07-10T10:03:36.996Z</time>
      </trkpt>
      <trkpt lat="46.26047" lon="6.75097">
        <ele>1299.362427</ele>
        <time>2008-07-10T10:05:15.000Z</time>
      </trkpt>
      <trkpt lat="46.26051" lon="6.75088">
        <ele>1300.307251</ele>
        <time>2008-07-10T10:06:00.999Z</time>
      </trkpt>
      <trkpt lat="46.26049" lon="6.75095">
        <ele>1300.795044</ele>
        <time>2008-07-10T10:06:18.996Z</time>
      </trkpt>
      <trkpt lat="46.26051" lon="6.7511">
        <ele>1302.258057</ele>
        <time>2008-07-10T10:06:38.998Z</time>
      </trkpt>
      <trkpt lat="46.26051" lon="6.75136">
        <ele>1302.71521</ele>
        <time>2008-07-10T10:06:46.999Z</time>
      </trkpt>
      <trkpt lat="46.26045" lon="6.75157">
        <ele>1302.258057</ele>
        <time>2008-07-10T10:06:53.997Z</time>
      </trkpt>
      <trkpt lat="46.26034" lon="6.75179">
        <ele>1301.282593</ele>
        <time>2008-07-10T10:06:59.000Z</time>
      </trkpt>
      <trkpt lat="46.25993" lon="6.75204">
        <ele>1301.770264</ele>
        <time>2008-07-10T10:07:11.001Z</time>
      </trkpt>
      <trkpt lat="46.25929" lon="6.75309">
        <ele>1305.61084</ele>
        <time>2008-07-10T10:07:47.997Z</time>
      </trkpt>
      <trkpt lat="46.2592" lon="6.75335">
        <ele>1307.531006</ele>
        <time>2008-07-10T10:07:59.998Z</time>
      </trkpt>
      <trkpt lat="46.25905" lon="6.75352">
        <ele>1310.426636</ele>
        <time>2008-07-10T10:08:15.999Z</time>
      </trkpt>
      <trkpt lat="46.25879" lon="6.75363">
        <ele>1314.26709</ele>
        <time>2008-07-10T10:08:36.001Z</time>
      </trkpt>
      <trkpt lat="46.25873" lon="6.7537">
        <ele>1315.699707</ele>
        <time>2008-07-10T10:08:41.997Z</time>
      </trkpt>
      <trkpt lat="46.25864" lon="6.75391">
        <ele>1316.674927</ele>
        <time>2008-07-10T10:08:53.998Z</time>
      </trkpt>
      <trkpt lat="46.25866" lon="6.75427">
        <ele>1319.540161</ele>
        <time>2008-07-10T10:09:12.004Z</time>
      </trkpt>
      <trkpt lat="46.25871" lon="6.75438">
        <ele>1321.003174</ele>
        <time>2008-07-10T10:09:18.000Z</time>
      </trkpt>
      <trkpt lat="46.25877" lon="6.75479">
        <ele>1322.435791</ele>
        <time>2008-07-10T10:09:34.001Z</time>
      </trkpt>
      <trkpt lat="46.25877" lon="6.75488">
        <ele>1322.435791</ele>
        <time>2008-07-10T10:09:36.999Z</time>
      </trkpt>
      <trkpt lat="46.25871" lon="6.75509">
        <ele>1324.84375</ele>
        <time>2008-07-10T10:09:47.998Z</time>
      </trkpt>
      <trkpt lat="46.25862" lon="6.75511">
        <ele>1325.300903</ele>
        <time>2008-07-10T10:09:54.996Z</time>
      </trkpt>
      <trkpt lat="46.25856" lon="6.75515">
        <ele>1326.276123</ele>
        <time>2008-07-10T10:09:59.999Z</time>
      </trkpt>
      <trkpt lat="46.25851" lon="6.75528">
        <ele>1326.763916</ele>
        <time>2008-07-10T10:10:08.000Z</time>
      </trkpt>
      <trkpt lat="46.25851" lon="6.75537">
        <ele>1327.70874</ele>
        <time>2008-07-10T10:10:12.000Z</time>
      </trkpt>
      <trkpt lat="46.25845" lon="6.75543">
        <ele>1327.70874</ele>
        <time>2008-07-10T10:10:17.003Z</time>
      </trkpt>
      <trkpt lat="46.25804" lon="6.75545">
        <ele>1335.877441</ele>
        <time>2008-07-10T10:10:48.003Z</time>
      </trkpt>
      <trkpt lat="46.25793" lon="6.75543">
        <ele>1335.877441</ele>
        <time>2008-07-10T10:10:55.001Z</time>
      </trkpt>
      <trkpt lat="46.25789" lon="6.75539">
        <ele>1336.365112</ele>
        <time>2008-07-10T10:11:00.004Z</time>
      </trkpt>
      <trkpt lat="46.25781" lon="6.75541">
        <ele>1337.340454</ele>
        <time>2008-07-10T10:11:06.000Z</time>
      </trkpt>
      <trkpt lat="46.25776" lon="6.75545">
        <ele>1337.797729</ele>
        <time>2008-07-10T10:11:10.000Z</time>
      </trkpt>
      <trkpt lat="46.25772" lon="6.75556">
        <ele>1340.205566</ele>
        <time>2008-07-10T10:11:16.999Z</time>
      </trkpt>
      <trkpt lat="46.25785" lon="6.75558">
        <ele>1342.125732</ele>
        <time>2008-07-10T10:11:26.002Z</time>
      </trkpt>
      <trkpt lat="46.25787" lon="6.75571">
        <ele>1343.588867</ele>
        <time>2008-07-10T10:11:38.003Z</time>
      </trkpt>
      <trkpt lat="46.25781" lon="6.75573">
        <ele>1344.046143</ele>
        <time>2008-07-10T10:11:42.996Z</time>
      </trkpt>
      <trkpt lat="46.25761" lon="6.75586">
        <ele>1347.429443</ele>
        <time>2008-07-10T10:12:00.000Z</time>
      </trkpt>
      <trkpt lat="46.25753" lon="6.75597">
        <ele>1347.916992</ele>
        <time>2008-07-10T10:12:05.996Z</time>
      </trkpt>
      <trkpt lat="46.25751" lon="6.75625">
        <ele>1348.861938</ele>
        <time>2008-07-10T10:12:13.997Z</time>
      </trkpt>
      <trkpt lat="46.25755" lon="6.75668">
        <ele>1348.374146</ele>
        <time>2008-07-10T10:12:25.004Z</time>
      </trkpt>
      <trkpt lat="46.25751" lon="6.75706">
        <ele>1350.294556</ele>
        <time>2008-07-10T10:12:36.996Z</time>
      </trkpt>
      <trkpt lat="46.25738" lon="6.75736">
        <ele>1350.782227</ele>
        <time>2008-07-10T10:12:51.002Z</time>
      </trkpt>
      <trkpt lat="46.25714" lon="6.75739">
        <ele>1356.085693</ele>
        <time>2008-07-10T10:13:11.997Z</time>
      </trkpt>
      <trkpt lat="46.2571" lon="6.75743">
        <ele>1356.542969</ele>
        <time>2008-07-10T10:13:18.002Z</time>
      </trkpt>
      <trkpt lat="46.25721" lon="6.75769">
        <ele>1359.92627</ele>
        <time>2008-07-10T10:13:41.002Z</time>
      </trkpt>
      <trkpt lat="46.25718" lon="6.75781">
        <ele>1361.358643</ele>
        <time>2008-07-10T10:13:54.998Z</time>
      </trkpt>
      <trkpt lat="46.25708" lon="6.75777">
        <ele>1364.254272</ele>
        <time>2008-07-10T10:14:05.004Z</time>
      </trkpt>
      <trkpt lat="46.25697" lon="6.75777">
        <ele>1368.094849</ele>
        <time>2008-07-10T10:14:17.998Z</time>
      </trkpt>
      <trkpt lat="46.25697" lon="6.75786">
        <ele>1369.527466</ele>
        <time>2008-07-10T10:14:24.003Z</time>
      </trkpt>
      <trkpt lat="46.25688" lon="6.75799">
        <ele>1370.990356</ele>
        <time>2008-07-10T10:14:36.004Z</time>
      </trkpt>
      <trkpt lat="46.25686" lon="6.75809">
        <ele>1371.935303</ele>
        <time>2008-07-10T10:14:44.998Z</time>
      </trkpt>
      <trkpt lat="46.25675" lon="6.75831">
        <ele>1375.288086</ele>
        <time>2008-07-10T10:15:23.999Z</time>
      </trkpt>
      <trkpt lat="46.25673" lon="6.75837">
        <ele>1376.263428</ele>
        <time>2008-07-10T10:15:30.997Z</time>
      </trkpt>
      <trkpt lat="46.25675" lon="6.75863">
        <ele>1382.511841</ele>
        <time>2008-07-10T10:15:57.004Z</time>
      </trkpt>
      <trkpt lat="46.25669" lon="6.75887">
        <ele>1388.272583</ele>
        <time>2008-07-10T10:16:24.997Z</time>
      </trkpt>
      <trkpt lat="46.25658" lon="6.75912">
        <ele>1390.680542</ele>
        <time>2008-07-10T10:16:59.998Z</time>
      </trkpt>
      <trkpt lat="46.2566" lon="6.75921">
        <ele>1392.600708</ele>
        <time>2008-07-10T10:17:11.999Z</time>
      </trkpt>
      <trkpt lat="46.25667" lon="6.75934">
        <ele>1396.928955</ele>
        <time>2008-07-10T10:17:29.996Z</time>
      </trkpt>
      <trkpt lat="46.25667" lon="6.75938">
        <ele>1397.904175</ele>
        <time>2008-07-10T10:17:33.996Z</time>
      </trkpt>
      <trkpt lat="46.25678" lon="6.75955">
        <ele>1402.689575</ele>
        <time>2008-07-10T10:18:01.999Z</time>
      </trkpt>
      <trkpt lat="46.2568" lon="6.75968">
        <ele>1407.017822</ele>
        <time>2008-07-10T10:18:23.996Z</time>
      </trkpt>
      <trkpt lat="46.25678" lon="6.75975">
        <ele>1407.505371</ele>
        <time>2008-07-10T10:18:31.003Z</time>
      </trkpt>
      <trkpt lat="46.25671" lon="6.75981">
        <ele>1409.425659</ele>
        <time>2008-07-10T10:18:42.002Z</time>
      </trkpt>
      <trkpt lat="46.2566" lon="6.75987">
        <ele>1412.80896</ele>
        <time>2008-07-10T10:18:59.999Z</time>
      </trkpt>
      <trkpt lat="46.25658" lon="6.76013">
        <ele>1413.753784</ele>
        <time>2008-07-10T10:19:17.996Z</time>
      </trkpt>
      <trkpt lat="46.25654" lon="6.76022">
        <ele>1414.241455</ele>
        <time>2008-07-10T10:19:29.997Z</time>
      </trkpt>
      <trkpt lat="46.25641" lon="6.76013">
        <ele>1414.729248</ele>
        <time>2008-07-10T10:19:41.998Z</time>
      </trkpt>
      <trkpt lat="46.25626" lon="6.75996">
        <ele>1417.106567</ele>
        <time>2008-07-10T10:19:55.001Z</time>
      </trkpt>
      <trkpt lat="46.25611" lon="6.75955">
        <ele>1419.514648</ele>
        <time>2008-07-10T10:20:18.001Z</time>
      </trkpt>
      <trkpt lat="46.25581" lon="6.75891">
        <ele>1421.434814</ele>
        <time>2008-07-10T10:20:41.001Z</time>
      </trkpt>
      <trkpt lat="46.25575" lon="6.75895">
        <ele>1421.922485</ele>
        <time>2008-07-10T10:20:46.003Z</time>
      </trkpt>
      <trkpt lat="46.25577" lon="6.75923">
        <ele>1426.25061</ele>
        <time>2008-07-10T10:21:24.002Z</time>
      </trkpt>
      <trkpt lat="46.25581" lon="6.75938">
        <ele>1430.091064</ele>
        <time>2008-07-10T10:21:36.003Z</time>
      </trkpt>
      <trkpt lat="46.25583" lon="6.7594">
        <ele>1430.578857</ele>
        <time>2008-07-10T10:21:40.003Z</time>
      </trkpt>
      <trkpt lat="46.25585" lon="6.75949">
        <ele>1432.499023</ele>
        <time>2008-07-10T10:21:48.004Z</time>
      </trkpt>
      <trkpt lat="46.25594" lon="6.75966">
        <ele>1436.827148</ele>
        <time>2008-07-10T10:22:06.001Z</time>
      </trkpt>
      <trkpt lat="46.25598" lon="6.76">
        <ele>1442.587891</ele>
        <time>2008-07-10T10:22:42.004Z</time>
      </trkpt>
      <trkpt lat="46.25598" lon="6.76007">
        <ele>1444.051025</ele>
        <time>2008-07-10T10:22:48.000Z</time>
      </trkpt>
      <trkpt lat="46.2559" lon="6.7602">
        <ele>1446.916138</ele>
        <time>2008-07-10T10:23:05.997Z</time>
      </trkpt>
      <trkpt lat="46.25583" lon="6.76022">
        <ele>1447.403809</ele>
        <time>2008-07-10T10:23:42.000Z</time>
      </trkpt>
      <trkpt lat="46.25583" lon="6.76026">
        <ele>1446.916138</ele>
        <time>2008-07-10T10:24:14.003Z</time>
      </trkpt>
      <trkpt lat="46.25575" lon="6.76026">
        <ele>1448.836304</ele>
        <time>2008-07-10T10:28:37.004Z</time>
      </trkpt>
      <trkpt lat="46.25568" lon="6.76018">
        <ele>1449.811768</ele>
        <time>2008-07-10T10:28:52.997Z</time>
      </trkpt>
      <trkpt lat="46.25557" lon="6.75998">
        <ele>1452.219604</ele>
        <time>2008-07-10T10:29:06.000Z</time>
      </trkpt>
      <trkpt lat="46.25545" lon="6.75994">
        <ele>1455.084717</ele>
        <time>2008-07-10T10:29:18.001Z</time>
      </trkpt>
      <trkpt lat="46.25519" lon="6.76011">
        <ele>1459.412964</ele>
        <time>2008-07-10T10:29:42.003Z</time>
      </trkpt>
      <trkpt lat="46.25508" lon="6.76015">
        <ele>1460.388184</ele>
        <time>2008-07-10T10:29:50.004Z</time>
      </trkpt>
      <trkpt lat="46.25487" lon="6.76033">
        <ele>1464.228638</ele>
        <time>2008-07-10T10:30:09.996Z</time>
      </trkpt>
      <trkpt lat="46.25476" lon="6.76039">
        <ele>1464.716431</ele>
        <time>2008-07-10T10:30:17.997Z</time>
      </trkpt>
      <trkpt lat="46.25452" lon="6.7606">
        <ele>1468.556885</ele>
        <time>2008-07-10T10:30:41.999Z</time>
      </trkpt>
      <trkpt lat="46.25416" lon="6.76099">
        <ele>1477.213257</ele>
        <time>2008-07-10T10:31:25.000Z</time>
      </trkpt>
      <trkpt lat="46.25412" lon="6.76103">
        <ele>1479.133423</ele>
        <time>2008-07-10T10:31:30.003Z</time>
      </trkpt>
      <trkpt lat="46.25399" lon="6.76105">
        <ele>1481.998657</ele>
        <time>2008-07-10T10:31:42.997Z</time>
      </trkpt>
      <trkpt lat="46.2539" lon="6.7611">
        <ele>1483.918823</ele>
        <time>2008-07-10T10:31:53.996Z</time>
      </trkpt>
      <trkpt lat="46.25373" lon="6.76129">
        <ele>1487.302124</ele>
        <time>2008-07-10T10:32:21.998Z</time>
      </trkpt>
      <trkpt lat="46.25375" lon="6.76129">
        <ele>1486.814453</ele>
        <time>2008-07-10T10:33:34.998Z</time>
      </trkpt>
      <trkpt lat="46.25358" lon="6.76157">
        <ele>1494.983032</ele>
        <time>2008-07-10T10:34:51.004Z</time>
      </trkpt>
      <trkpt lat="46.25343" lon="6.76176">
        <ele>1497.87854</ele>
        <time>2008-07-10T10:35:06.996Z</time>
      </trkpt>
      <trkpt lat="46.25328" lon="6.76211">
        <ele>1504.126953</ele>
        <time>2008-07-10T10:35:29.996Z</time>
      </trkpt>
      <trkpt lat="46.25321" lon="6.76217">
        <ele>1505.071899</ele>
        <time>2008-07-10T10:35:36.001Z</time>
      </trkpt>
      <trkpt lat="46.25302" lon="6.76241">
        <ele>1509.400146</ele>
        <time>2008-07-10T10:35:57.998Z</time>
      </trkpt>
      <trkpt lat="46.25293" lon="6.76247">
        <ele>1511.807983</ele>
        <time>2008-07-10T10:36:05.999Z</time>
      </trkpt>
      <trkpt lat="46.25278" lon="6.76269">
        <ele>1513.728149</ele>
        <time>2008-07-10T10:36:23.996Z</time>
      </trkpt>
      <trkpt lat="46.25263" lon="6.76281">
        <ele>1516.623779</ele>
        <time>2008-07-10T10:36:35.997Z</time>
      </trkpt>
      <trkpt lat="46.25257" lon="6.76292">
        <ele>1517.11145</ele>
        <time>2008-07-10T10:36:43.004Z</time>
      </trkpt>
      <trkpt lat="46.25221" lon="6.76333">
        <ele>1523.359863</ele>
        <time>2008-07-10T10:37:17.996Z</time>
      </trkpt>
      <trkpt lat="46.25193" lon="6.7635">
        <ele>1525.737427</ele>
        <time>2008-07-10T10:37:41.998Z</time>
      </trkpt>
      <trkpt lat="46.25186" lon="6.76352">
        <ele>1527.200439</ele>
        <time>2008-07-10T10:37:48.003Z</time>
      </trkpt>
      <trkpt lat="46.2518" lon="6.76357">
        <ele>1528.633057</ele>
        <time>2008-07-10T10:37:52.997Z</time>
      </trkpt>
      <trkpt lat="46.25178" lon="6.76363">
        <ele>1530.06543</ele>
        <time>2008-07-10T10:37:59.002Z</time>
      </trkpt>
      <trkpt lat="46.25173" lon="6.76365">
        <ele>1530.553223</ele>
        <time>2008-07-10T10:38:03.002Z</time>
      </trkpt>
      <trkpt lat="46.25173" lon="6.76363">
        <ele>1530.553223</ele>
        <time>2008-07-10T10:38:04.998Z</time>
      </trkpt>
      <trkpt lat="46.25178" lon="6.76361">
        <ele>1528.145264</ele>
        <time>2008-07-10T10:38:47.999Z</time>
      </trkpt>
      <trkpt lat="46.2518" lon="6.76354">
        <ele>1531.528564</ele>
        <time>2008-07-10T10:43:11.001Z</time>
      </trkpt>
      <trkpt lat="46.25184" lon="6.76352">
        <ele>1532.473389</ele>
        <time>2008-07-10T10:47:23.004Z</time>
      </trkpt>
      <trkpt lat="46.25184" lon="6.76357">
        <ele>1533.906006</ele>
        <time>2008-07-10T10:47:42.003Z</time>
      </trkpt>
      <trkpt lat="46.25184" lon="6.76348">
        <ele>1533.906006</ele>
        <time>2008-07-10T10:48:01.002Z</time>
      </trkpt>
      <trkpt lat="46.25225" lon="6.76363">
        <ele>1540.64209</ele>
        <time>2008-07-10T10:48:36.003Z</time>
      </trkpt>
      <trkpt lat="46.25244" lon="6.76363">
        <ele>1544.025391</ele>
        <time>2008-07-10T10:48:54.000Z</time>
      </trkpt>
      <trkpt lat="46.25257" lon="6.76359">
        <ele>1546.890503</ele>
        <time>2008-07-10T10:49:04.999Z</time>
      </trkpt>
      <trkpt lat="46.25272" lon="6.7635">
        <ele>1548.810669</ele>
        <time>2008-07-10T10:49:18.002Z</time>
      </trkpt>
      <trkpt lat="46.25291" lon="6.76346">
        <ele>1552.681763</ele>
        <time>2008-07-10T10:49:33.001Z</time>
      </trkpt>
      <trkpt lat="46.25317" lon="6.76348">
        <ele>1555.059082</ele>
        <time>2008-07-10T10:49:54.998Z</time>
      </trkpt>
      <trkpt lat="46.25328" lon="6.76339">
        <ele>1557.954712</ele>
        <time>2008-07-10T10:50:05.997Z</time>
      </trkpt>
      <trkpt lat="46.25373" lon="6.76327">
        <ele>1564.203125</ele>
        <time>2008-07-10T10:50:52.999Z</time>
      </trkpt>
      <trkpt lat="46.25399" lon="6.76333">
        <ele>1566.123413</ele>
        <time>2008-07-10T10:51:11.998Z</time>
      </trkpt>
      <trkpt lat="46.25371" lon="6.76339">
        <ele>1569.019043</ele>
        <time>2008-07-10T10:51:34.998Z</time>
      </trkpt>
      <trkpt lat="46.25366" lon="6.76344">
        <ele>1570.939209</ele>
        <time>2008-07-10T10:51:40.000Z</time>
      </trkpt>
      <trkpt lat="46.25349" lon="6.7635">
        <ele>1573.804321</ele>
        <time>2008-07-10T10:51:54.999Z</time>
      </trkpt>
      <trkpt lat="46.25341" lon="6.7635">
        <ele>1576.699951</ele>
        <time>2008-07-10T10:52:07.000Z</time>
      </trkpt>
      <trkpt lat="46.25332" lon="6.76357">
        <ele>1577.187622</ele>
        <time>2008-07-10T10:52:17.999Z</time>
      </trkpt>
      <trkpt lat="46.25328" lon="6.76367">
        <ele>1578.620239</ele>
        <time>2008-07-10T10:52:26.000Z</time>
      </trkpt>
      <trkpt lat="46.25315" lon="6.7638">
        <ele>1580.052734</ele>
        <time>2008-07-10T10:52:44.999Z</time>
      </trkpt>
      <trkpt lat="46.25315" lon="6.76393">
        <ele>1581.973022</ele>
        <time>2008-07-10T10:52:53.000Z</time>
      </trkpt>
      <trkpt lat="46.25371" lon="6.76378">
        <ele>1589.684448</ele>
        <time>2008-07-10T10:53:41.004Z</time>
      </trkpt>
      <trkpt lat="46.25381" lon="6.76372">
        <ele>1591.117065</ele>
        <time>2008-07-10T10:53:52.996Z</time>
      </trkpt>
      <trkpt lat="46.25381" lon="6.7638">
        <ele>1591.604614</ele>
        <time>2008-07-10T10:53:59.001Z</time>
      </trkpt>
      <trkpt lat="46.25373" lon="6.76384">
        <ele>1592.092285</ele>
        <time>2008-07-10T10:54:07.001Z</time>
      </trkpt>
      <trkpt lat="46.25341" lon="6.76425">
        <ele>1599.285645</ele>
        <time>2008-07-10T10:54:42.002Z</time>
      </trkpt>
      <trkpt lat="46.25332" lon="6.76432">
        <ele>1599.773315</ele>
        <time>2008-07-10T10:54:47.998Z</time>
      </trkpt>
      <trkpt lat="46.25317" lon="6.76466">
        <ele>1604.10144</ele>
        <time>2008-07-10T10:55:12.000Z</time>
      </trkpt>
      <trkpt lat="46.25313" lon="6.76492">
        <ele>1606.509399</ele>
        <time>2008-07-10T10:55:29.997Z</time>
      </trkpt>
      <trkpt lat="46.25311" lon="6.76528">
        <ele>1611.782349</ele>
        <time>2008-07-10T10:55:53.999Z</time>
      </trkpt>
      <trkpt lat="46.25309" lon="6.76539">
        <ele>1613.214966</ele>
        <time>2008-07-10T10:56:00.004Z</time>
      </trkpt>
      <trkpt lat="46.25304" lon="6.76548">
        <ele>1614.677979</ele>
        <time>2008-07-10T10:56:06.000Z</time>
      </trkpt>
      <trkpt lat="46.25302" lon="6.76567">
        <ele>1615.622925</ele>
        <time>2008-07-10T10:56:18.001Z</time>
      </trkpt>
      <trkpt lat="46.25293" lon="6.7661">
        <ele>1619.463379</ele>
        <time>2008-07-10T10:56:47.999Z</time>
      </trkpt>
      <trkpt lat="46.25293" lon="6.7664">
        <ele>1621.414063</ele>
        <time>2008-07-10T10:57:05.996Z</time>
      </trkpt>
      <trkpt lat="46.25291" lon="6.76646">
        <ele>1621.414063</ele>
        <time>2008-07-10T10:57:12.001Z</time>
      </trkpt>
      <trkpt lat="46.25266" lon="6.76668">
        <ele>1626.687134</ele>
        <time>2008-07-10T10:57:36.003Z</time>
      </trkpt>
      <trkpt lat="46.25242" lon="6.76678">
        <ele>1628.607422</ele>
        <time>2008-07-10T10:57:54.000Z</time>
      </trkpt>
      <trkpt lat="46.25236" lon="6.76685">
        <ele>1629.582642</ele>
        <time>2008-07-10T10:57:59.996Z</time>
      </trkpt>
      <trkpt lat="46.25227" lon="6.76689">
        <ele>1630.527588</ele>
        <time>2008-07-10T10:58:06.001Z</time>
      </trkpt>
      <trkpt lat="46.25221" lon="6.76696">
        <ele>1632.447754</ele>
        <time>2008-07-10T10:58:11.997Z</time>
      </trkpt>
      <trkpt lat="46.25208" lon="6.76704">
        <ele>1633.423218</ele>
        <time>2008-07-10T10:58:23.998Z</time>
      </trkpt>
      <trkpt lat="46.25206" lon="6.76713">
        <ele>1633.423218</ele>
        <time>2008-07-10T10:58:29.001Z</time>
      </trkpt>
      <trkpt lat="46.25278" lon="6.767">
        <ele>1644.94458</ele>
        <time>2008-07-10T10:59:42.000Z</time>
      </trkpt>
      <trkpt lat="46.25296" lon="6.767">
        <ele>1648.785034</ele>
        <time>2008-07-10T10:59:59.997Z</time>
      </trkpt>
      <trkpt lat="46.253" lon="6.76704">
        <ele>1649.760498</ele>
        <time>2008-07-10T11:00:05.000Z</time>
      </trkpt>
      <trkpt lat="46.253" lon="6.76713">
        <ele>1650.73584</ele>
        <time>2008-07-10T11:00:10.996Z</time>
      </trkpt>
      <trkpt lat="46.25291" lon="6.76719">
        <ele>1652.656128</ele>
        <time>2008-07-10T11:00:26.997Z</time>
      </trkpt>
      <trkpt lat="46.25281" lon="6.76736">
        <ele>1656.496582</ele>
        <time>2008-07-10T11:01:34.000Z</time>
      </trkpt>
      <trkpt lat="46.25281" lon="6.76741">
        <ele>1658.416748</ele>
        <time>2008-07-10T11:01:35.996Z</time>
      </trkpt>
      <trkpt lat="46.25278" lon="6.76741">
        <ele>1658.416748</ele>
        <time>2008-07-10T11:01:36.998Z</time>
      </trkpt>
      <trkpt lat="46.25276" lon="6.76749">
        <ele>1659.849365</ele>
        <time>2008-07-10T11:01:42.001Z</time>
      </trkpt>
      <trkpt lat="46.25248" lon="6.76794">
        <ele>1662.257324</ele>
        <time>2008-07-10T11:02:56.996Z</time>
      </trkpt>
      <trkpt lat="46.25244" lon="6.76809">
        <ele>1663.689819</ele>
        <time>2008-07-10T11:03:04.003Z</time>
      </trkpt>
      <trkpt lat="46.25227" lon="6.76841">
        <ele>1666.097778</ele>
        <time>2008-07-10T11:03:23.996Z</time>
      </trkpt>
      <trkpt lat="46.25208" lon="6.76867">
        <ele>1669.938232</ele>
        <time>2008-07-10T11:03:42.002Z</time>
      </trkpt>
      <trkpt lat="46.25184" lon="6.76917">
        <ele>1673.321533</ele>
        <time>2008-07-10T11:04:29.004Z</time>
      </trkpt>
      <trkpt lat="46.25175" lon="6.76953">
        <ele>1678.106934</ele>
        <time>2008-07-10T11:07:18.002Z</time>
      </trkpt>
      <trkpt lat="46.25169" lon="6.7699">
        <ele>1680.514771</ele>
        <time>2008-07-10T11:07:35.999Z</time>
      </trkpt>
      <trkpt lat="46.25165" lon="6.77002">
        <ele>1681.490234</ele>
        <time>2008-07-10T11:07:42.004Z</time>
      </trkpt>
      <trkpt lat="46.25118" lon="6.77084">
        <ele>1687.738647</ele>
        <time>2008-07-10T11:08:24.003Z</time>
      </trkpt>
      <trkpt lat="46.25113" lon="6.7709">
        <ele>1689.171143</ele>
        <time>2008-07-10T11:08:28.997Z</time>
      </trkpt>
      <trkpt lat="46.25111" lon="6.7709">
        <ele>1689.171143</ele>
        <time>2008-07-10T11:08:29.999Z</time>
      </trkpt>
      <trkpt lat="46.25109" lon="6.77097">
        <ele>1690.60376</ele>
        <time>2008-07-10T11:08:33.999Z</time>
      </trkpt>
      <trkpt lat="46.25098" lon="6.77116">
        <ele>1691.578979</ele>
        <time>2008-07-10T11:08:47.996Z</time>
      </trkpt>
      <trkpt lat="46.25098" lon="6.7712">
        <ele>1692.06665</ele>
        <time>2008-07-10T11:08:50.001Z</time>
      </trkpt>
      <trkpt lat="46.25087" lon="6.77146">
        <ele>1693.499268</ele>
        <time>2008-07-10T11:09:06.002Z</time>
      </trkpt>
      <trkpt lat="46.25085" lon="6.77157">
        <ele>1693.987061</ele>
        <time>2008-07-10T11:09:11.998Z</time>
      </trkpt>
      <trkpt lat="46.25094" lon="6.77189">
        <ele>1694.931763</ele>
        <time>2008-07-10T11:09:25.001Z</time>
      </trkpt>
      <trkpt lat="46.25094" lon="6.77228">
        <ele>1697.827393</ele>
        <time>2008-07-10T11:09:41.996Z</time>
      </trkpt>
      <trkpt lat="46.25092" lon="6.77234">
        <ele>1698.772339</ele>
        <time>2008-07-10T11:09:45.003Z</time>
      </trkpt>
      <trkpt lat="46.25087" lon="6.77243">
        <ele>1698.772339</ele>
        <time>2008-07-10T11:09:50.999Z</time>
      </trkpt>
      <trkpt lat="46.25053" lon="6.77271">
        <ele>1702.15564</ele>
        <time>2008-07-10T11:10:17.999Z</time>
      </trkpt>
      <trkpt lat="46.25032" lon="6.77311">
        <ele>1702.15564</ele>
        <time>2008-07-10T11:10:31.002Z</time>
      </trkpt>
      <trkpt lat="46.25025" lon="6.77333">
        <ele>1701.180176</ele>
        <time>2008-07-10T11:10:35.003Z</time>
      </trkpt>
      <trkpt lat="46.25002" lon="6.77372">
        <ele>1699.747681</ele>
        <time>2008-07-10T11:10:42.001Z</time>
      </trkpt>
      <trkpt lat="46.24989" lon="6.77406">
        <ele>1696.852051</ele>
        <time>2008-07-10T11:10:47.004Z</time>
      </trkpt>
      <trkpt lat="46.24985" lon="6.77444">
        <ele>1694.474609</ele>
        <time>2008-07-10T11:10:51.004Z</time>
      </trkpt>
      <trkpt lat="46.2498" lon="6.77464">
        <ele>1693.987061</ele>
        <time>2008-07-10T11:10:53.000Z</time>
      </trkpt>
      <trkpt lat="46.24959" lon="6.77507">
        <ele>1693.011597</ele>
        <time>2008-07-10T11:10:58.002Z</time>
      </trkpt>
      <trkpt lat="46.24916" lon="6.77513">
        <ele>1694.931763</ele>
        <time>2008-07-10T11:11:18.004Z</time>
      </trkpt>
      <trkpt lat="46.24894" lon="6.77496">
        <ele>1699.26001</ele>
        <time>2008-07-10T11:11:36.001Z</time>
      </trkpt>
      <trkpt lat="46.24873" lon="6.77509">
        <ele>1701.180176</ele>
        <time>2008-07-10T11:11:53.998Z</time>
      </trkpt>
      <trkpt lat="46.24864" lon="6.77528">
        <ele>1702.643311</ele>
        <time>2008-07-10T11:12:05.999Z</time>
      </trkpt>
      <trkpt lat="46.24856" lon="6.77552">
        <ele>1705.02063</ele>
        <time>2008-07-10T11:12:18.000Z</time>
      </trkpt>
      <trkpt lat="46.24849" lon="6.77599">
        <ele>1706.483765</ele>
        <time>2008-07-10T11:12:35.997Z</time>
      </trkpt>
      <trkpt lat="46.24845" lon="6.77601">
        <ele>1707.91626</ele>
        <time>2008-07-10T11:12:39.004Z</time>
      </trkpt>
      <trkpt lat="46.24841" lon="6.77612">
        <ele>1710.324219</ele>
        <time>2008-07-10T11:12:45.000Z</time>
      </trkpt>
      <trkpt lat="46.24832" lon="6.77623">
        <ele>1712.244507</ele>
        <time>2008-07-10T11:12:54.003Z</time>
      </trkpt>
      <trkpt lat="46.24813" lon="6.77665">
        <ele>1713.677002</ele>
        <time>2008-07-10T11:13:17.996Z</time>
      </trkpt>
      <trkpt lat="46.24809" lon="6.77678">
        <ele>1714.652344</ele>
        <time>2008-07-10T11:13:24.001Z</time>
      </trkpt>
      <trkpt lat="46.24811" lon="6.77693">
        <ele>1714.652344</ele>
        <time>2008-07-10T11:13:29.997Z</time>
      </trkpt>
      <trkpt lat="46.24809" lon="6.77702">
        <ele>1715.140137</ele>
        <time>2008-07-10T11:13:33.997Z</time>
      </trkpt>
      <trkpt lat="46.24804" lon="6.77711">
        <ele>1715.59729</ele>
        <time>2008-07-10T11:13:39.000Z</time>
      </trkpt>
      <trkpt lat="46.24804" lon="6.77715">
        <ele>1715.59729</ele>
        <time>2008-07-10T11:13:40.996Z</time>
      </trkpt>
      <trkpt lat="46.24798" lon="6.77719">
        <ele>1716.572632</ele>
        <time>2008-07-10T11:13:44.996Z</time>
      </trkpt>
      <trkpt lat="46.24776" lon="6.77745">
        <ele>1718.005249</ele>
        <time>2008-07-10T11:14:04.004Z</time>
      </trkpt>
      <trkpt lat="46.24757" lon="6.77745">
        <ele>1719.925415</ele>
        <time>2008-07-10T11:14:18.001Z</time>
      </trkpt>
      <trkpt lat="46.24759" lon="6.77758">
        <ele>1720.900757</ele>
        <time>2008-07-10T11:14:27.004Z</time>
      </trkpt>
      <trkpt lat="46.24766" lon="6.77762">
        <ele>1721.38855</ele>
        <time>2008-07-10T11:14:31.998Z</time>
      </trkpt>
      <trkpt lat="46.24774" lon="6.77762">
        <ele>1723.765869</ele>
        <time>2008-07-10T11:22:37.998Z</time>
      </trkpt>
      <trkpt lat="46.24772" lon="6.77762">
        <ele>1726.661499</ele>
        <time>2008-07-10T11:28:38.001Z</time>
      </trkpt>
      <trkpt lat="46.24774" lon="6.77764">
        <ele>1726.661499</ele>
        <time>2008-07-10T11:28:53.000Z</time>
      </trkpt>
      <trkpt lat="46.24776" lon="6.77771">
        <ele>1727.14917</ele>
        <time>2008-07-10T11:29:09.001Z</time>
      </trkpt>
      <trkpt lat="46.24794" lon="6.77805">
        <ele>1730.501953</ele>
        <time>2008-07-10T11:29:36.001Z</time>
      </trkpt>
      <trkpt lat="46.24802" lon="6.77816">
        <ele>1732.909912</ele>
        <time>2008-07-10T11:29:48.002Z</time>
      </trkpt>
      <trkpt lat="46.24809" lon="6.77831">
        <ele>1734.342529</ele>
        <time>2008-07-10T11:30:00.003Z</time>
      </trkpt>
      <trkpt lat="46.24815" lon="6.77865">
        <ele>1738.670532</ele>
        <time>2008-07-10T11:30:23.996Z</time>
      </trkpt>
      <trkpt lat="46.24819" lon="6.77876">
        <ele>1741.566162</ele>
        <time>2008-07-10T11:30:32.999Z</time>
      </trkpt>
      <trkpt lat="46.24819" lon="6.77889">
        <ele>1742.998779</ele>
        <time>2008-07-10T11:30:42.002Z</time>
      </trkpt>
      <trkpt lat="46.24826" lon="6.77902">
        <ele>1744.461792</ele>
        <time>2008-07-10T11:30:54.996Z</time>
      </trkpt>
      <trkpt lat="46.24836" lon="6.77893">
        <ele>1746.38208</ele>
        <time>2008-07-10T11:31:09.002Z</time>
      </trkpt>
      <trkpt lat="46.24845" lon="6.77876">
        <ele>1748.302246</ele>
        <time>2008-07-10T11:31:24.001Z</time>
      </trkpt>
      <trkpt lat="46.24849" lon="6.77876">
        <ele>1749.247192</ele>
        <time>2008-07-10T11:31:26.999Z</time>
      </trkpt>
      <trkpt lat="46.24851" lon="6.77876">
        <ele>1750.222656</ele>
        <time>2008-07-10T11:31:29.997Z</time>
      </trkpt>
      <trkpt lat="46.24854" lon="6.77886">
        <ele>1751.167358</ele>
        <time>2008-07-10T11:31:37.998Z</time>
      </trkpt>
      <trkpt lat="46.24854" lon="6.7791">
        <ele>1753.087769</ele>
        <time>2008-07-10T11:31:53.999Z</time>
      </trkpt>
      <trkpt lat="46.24856" lon="6.77912">
        <ele>1753.575439</ele>
        <time>2008-07-10T11:32:00.997Z</time>
      </trkpt>
      <trkpt lat="46.24856" lon="6.77936">
        <ele>1756.958618</ele>
        <time>2008-07-10T11:32:20.999Z</time>
      </trkpt>
      <trkpt lat="46.24851" lon="6.77949">
        <ele>1759.33606</ele>
        <time>2008-07-10T11:32:30.002Z</time>
      </trkpt>
      <trkpt lat="46.24845" lon="6.77977">
        <ele>1762.231689</ele>
        <time>2008-07-10T11:32:47.999Z</time>
      </trkpt>
      <trkpt lat="46.24845" lon="6.78002">
        <ele>1767.047485</ele>
        <time>2008-07-10T11:33:05.996Z</time>
      </trkpt>
      <trkpt lat="46.24845" lon="6.78007">
        <ele>1767.992432</ele>
        <time>2008-07-10T11:33:09.003Z</time>
      </trkpt>
      <trkpt lat="46.24843" lon="6.78011">
        <ele>1768.480103</ele>
        <time>2008-07-10T11:33:12.001Z</time>
      </trkpt>
      <trkpt lat="46.24843" lon="6.7803">
        <ele>1769.455322</ele>
        <time>2008-07-10T11:33:24.002Z</time>
      </trkpt>
      <trkpt lat="46.24847" lon="6.78047">
        <ele>1771.375732</ele>
        <time>2008-07-10T11:33:36.003Z</time>
      </trkpt>
      <trkpt lat="46.24851" lon="6.78123">
        <ele>1780.031982</ele>
        <time>2008-07-10T11:34:22.996Z</time>
      </trkpt>
      <trkpt lat="46.24847" lon="6.78131">
        <ele>1780.031982</ele>
        <time>2008-07-10T11:34:27.998Z</time>
      </trkpt>
      <trkpt lat="46.24847" lon="6.78157">
        <ele>1781.4646</ele>
        <time>2008-07-10T11:34:42.004Z</time>
      </trkpt>
      <trkpt lat="46.24834" lon="6.78232">
        <ele>1788.657837</ele>
        <time>2008-07-10T11:35:24.003Z</time>
      </trkpt>
      <trkpt lat="46.24832" lon="6.78256">
        <ele>1792.041138</ele>
        <time>2008-07-10T11:35:38.000Z</time>
      </trkpt>
      <trkpt lat="46.24824" lon="6.78283">
        <ele>1792.985962</ele>
        <time>2008-07-10T11:35:54.001Z</time>
      </trkpt>
      <trkpt lat="46.24821" lon="6.78301">
        <ele>1794.448975</ele>
        <time>2008-07-10T11:36:03.997Z</time>
      </trkpt>
      <trkpt lat="46.24809" lon="6.78436">
        <ele>1805.025635</ele>
        <time>2008-07-10T11:37:20.004Z</time>
      </trkpt>
      <trkpt lat="46.24806" lon="6.78438">
        <ele>1805.970459</ele>
        <time>2008-07-10T11:37:23.002Z</time>
      </trkpt>
      <trkpt lat="46.24804" lon="6.78479">
        <ele>1808.866089</ele>
        <time>2008-07-10T11:37:47.997Z</time>
      </trkpt>
      <trkpt lat="46.24789" lon="6.78543">
        <ele>1815.602173</ele>
        <time>2008-07-10T11:38:26.998Z</time>
      </trkpt>
      <trkpt lat="46.24785" lon="6.78556">
        <ele>1817.522461</ele>
        <time>2008-07-10T11:38:34.999Z</time>
      </trkpt>
      <trkpt lat="46.24781" lon="6.78595">
        <ele>1820.875244</ele>
        <time>2008-07-10T11:39:00.003Z</time>
      </trkpt>
      <trkpt lat="46.24776" lon="6.78603">
        <ele>1823.283081</ele>
        <time>2008-07-10T11:39:05.999Z</time>
      </trkpt>
      <trkpt lat="46.24774" lon="6.78622">
        <ele>1823.770752</ele>
        <time>2008-07-10T11:39:18.000Z</time>
      </trkpt>
      <trkpt lat="46.24755" lon="6.78693">
        <ele>1830.47644</ele>
        <time>2008-07-10T11:39:59.999Z</time>
      </trkpt>
      <trkpt lat="46.24753" lon="6.7873">
        <ele>1831.451782</ele>
        <time>2008-07-10T11:40:17.996Z</time>
      </trkpt>
      <trkpt lat="46.24759" lon="6.78786">
        <ele>1834.347412</ele>
        <time>2008-07-10T11:40:48.003Z</time>
      </trkpt>
      <trkpt lat="46.24774" lon="6.78826">
        <ele>1836.267578</ele>
        <time>2008-07-10T11:41:11.996Z</time>
      </trkpt>
      <trkpt lat="46.24776" lon="6.78835">
        <ele>1835.292236</ele>
        <time>2008-07-10T11:41:14.001Z</time>
      </trkpt>
      <trkpt lat="46.24791" lon="6.78848">
        <ele>1832.884277</ele>
        <time>2008-07-10T11:41:20.999Z</time>
      </trkpt>
      <trkpt lat="46.248" lon="6.78876">
        <ele>1829.043823</ele>
        <time>2008-07-10T11:41:31.998Z</time>
      </trkpt>
      <trkpt lat="46.24802" lon="6.78876">
        <ele>1829.043823</ele>
        <time>2008-07-10T11:41:33.000Z</time>
      </trkpt>
      <trkpt lat="46.24809" lon="6.78884">
        <ele>1828.098999</ele>
        <time>2008-07-10T11:41:37.000Z</time>
      </trkpt>
      <trkpt lat="46.24819" lon="6.78908">
        <ele>1822.79541</ele>
        <time>2008-07-10T11:41:46.003Z</time>
      </trkpt>
      <trkpt lat="46.24841" lon="6.78923">
        <ele>1820.387451</ele>
        <time>2008-07-10T11:41:51.999Z</time>
      </trkpt>
      <trkpt lat="46.24847" lon="6.78936">
        <ele>1818.955078</ele>
        <time>2008-07-10T11:41:54.997Z</time>
      </trkpt>
      <trkpt lat="46.24809" lon="6.78931">
        <ele>1811.274048</ele>
        <time>2008-07-10T11:42:05.996Z</time>
      </trkpt>
      <trkpt lat="46.24789" lon="6.78908">
        <ele>1807.402954</ele>
        <time>2008-07-10T11:42:12.001Z</time>
      </trkpt>
      <trkpt lat="46.24789" lon="6.78925">
        <ele>1804.537842</ele>
        <time>2008-07-10T11:42:17.997Z</time>
      </trkpt>
      <trkpt lat="46.248" lon="6.78946">
        <ele>1802.130005</ele>
        <time>2008-07-10T11:42:21.997Z</time>
      </trkpt>
      <trkpt lat="46.24815" lon="6.78959">
        <ele>1799.722168</ele>
        <time>2008-07-10T11:42:25.998Z</time>
      </trkpt>
      <trkpt lat="46.24828" lon="6.78989">
        <ele>1793.961426</ele>
        <time>2008-07-10T11:42:32.003Z</time>
      </trkpt>
      <trkpt lat="46.24845" lon="6.79002">
        <ele>1791.065796</ele>
        <time>2008-07-10T11:42:36.003Z</time>
      </trkpt>
      <trkpt lat="46.24832" lon="6.79004">
        <ele>1789.145508</ele>
        <time>2008-07-10T11:42:40.997Z</time>
      </trkpt>
      <trkpt lat="46.24821" lon="6.79">
        <ele>1788.200562</ele>
        <time>2008-07-10T11:42:43.001Z</time>
      </trkpt>
      <trkpt lat="46.24806" lon="6.78985">
        <ele>1785.304932</ele>
        <time>2008-07-10T11:42:48.004Z</time>
      </trkpt>
      <trkpt lat="46.24802" lon="6.78994">
        <ele>1781.952148</ele>
        <time>2008-07-10T11:42:52.998Z</time>
      </trkpt>
      <trkpt lat="46.24815" lon="6.79017">
        <ele>1780.489258</ele>
        <time>2008-07-10T11:42:58.000Z</time>
      </trkpt>
      <trkpt lat="46.24847" lon="6.79054">
        <ele>1776.161011</ele>
        <time>2008-07-10T11:43:04.999Z</time>
      </trkpt>
      <trkpt lat="46.24858" lon="6.7906">
        <ele>1773.783569</ele>
        <time>2008-07-10T11:43:08.999Z</time>
      </trkpt>
      <trkpt lat="46.24858" lon="6.79058">
        <ele>1772.808228</ele>
        <time>2008-07-10T11:43:10.001Z</time>
      </trkpt>
      <trkpt lat="46.24858" lon="6.7906">
        <ele>1772.320679</ele>
        <time>2008-07-10T11:43:27.998Z</time>
      </trkpt>
      <trkpt lat="46.24858" lon="6.79058">
        <ele>1769.455322</ele>
        <time>2008-07-10T11:43:30.996Z</time>
      </trkpt>
      <trkpt lat="46.24888" lon="6.79045">
        <ele>1770.400269</ele>
        <time>2008-07-10T11:45:25.001Z</time>
      </trkpt>
      <trkpt lat="46.24901" lon="6.79034">
        <ele>1768.480103</ele>
        <time>2008-07-10T11:45:30.997Z</time>
      </trkpt>
      <trkpt lat="46.24918" lon="6.79047">
        <ele>1764.151855</ele>
        <time>2008-07-10T11:45:36.000Z</time>
      </trkpt>
      <trkpt lat="46.24935" lon="6.79054">
        <ele>1761.286743</ele>
        <time>2008-07-10T11:45:40.000Z</time>
      </trkpt>
      <trkpt lat="46.24963" lon="6.79054">
        <ele>1758.878906</ele>
        <time>2008-07-10T11:45:45.003Z</time>
      </trkpt>
      <trkpt lat="46.25006" lon="6.79077">
        <ele>1752.142822</ele>
        <time>2008-07-10T11:45:53.004Z</time>
      </trkpt>
      <trkpt lat="46.2503" lon="6.79077">
        <ele>1749.247192</ele>
        <time>2008-07-10T11:45:59.000Z</time>
      </trkpt>
      <trkpt lat="46.25042" lon="6.79084">
        <ele>1745.894409</ele>
        <time>2008-07-10T11:46:03.000Z</time>
      </trkpt>
      <trkpt lat="46.25087" lon="6.7909">
        <ele>1737.238159</ele>
        <time>2008-07-10T11:46:12.003Z</time>
      </trkpt>
      <trkpt lat="46.25128" lon="6.79101">
        <ele>1730.501953</ele>
        <time>2008-07-10T11:46:19.001Z</time>
      </trkpt>
      <trkpt lat="46.25171" lon="6.79133">
        <ele>1723.308716</ele>
        <time>2008-07-10T11:46:27.002Z</time>
      </trkpt>
      <trkpt lat="46.25182" lon="6.79137">
        <ele>1721.845703</ele>
        <time>2008-07-10T11:46:36.998Z</time>
      </trkpt>
      <trkpt lat="46.25182" lon="6.79135">
        <ele>1722.333374</ele>
        <time>2008-07-10T11:46:38.001Z</time>
      </trkpt>
      <trkpt lat="46.25186" lon="6.79135">
        <ele>1722.333374</ele>
        <time>2008-07-10T11:46:43.003Z</time>
      </trkpt>
      <trkpt lat="46.25199" lon="6.79142">
        <ele>1720.413086</ele>
        <time>2008-07-10T11:46:51.997Z</time>
      </trkpt>
      <trkpt lat="46.25221" lon="6.79144">
        <ele>1715.140137</ele>
        <time>2008-07-10T11:46:58.996Z</time>
      </trkpt>
      <trkpt lat="46.25238" lon="6.79152">
        <ele>1711.269043</ele>
        <time>2008-07-10T11:47:03.998Z</time>
      </trkpt>
      <trkpt lat="46.25261" lon="6.79159">
        <ele>1705.996094</ele>
        <time>2008-07-10T11:47:10.003Z</time>
      </trkpt>
      <trkpt lat="46.25281" lon="6.79157">
        <ele>1703.588257</ele>
        <time>2008-07-10T11:47:14.004Z</time>
      </trkpt>
      <trkpt lat="46.25309" lon="6.79168">
        <ele>1700.235474</ele>
        <time>2008-07-10T11:47:20.000Z</time>
      </trkpt>
      <trkpt lat="46.25328" lon="6.79178">
        <ele>1696.394897</ele>
        <time>2008-07-10T11:47:25.002Z</time>
      </trkpt>
      <trkpt lat="46.25343" lon="6.79183">
        <ele>1695.419434</ele>
        <time>2008-07-10T11:47:29.003Z</time>
      </trkpt>
      <trkpt lat="46.25396" lon="6.79157">
        <ele>1693.011597</ele>
        <time>2008-07-10T11:47:38.999Z</time>
      </trkpt>
      <trkpt lat="46.25412" lon="6.7914">
        <ele>1693.499268</ele>
        <time>2008-07-10T11:47:45.997Z</time>
      </trkpt>
      <trkpt lat="46.25414" lon="6.79142">
        <ele>1693.499268</ele>
        <time>2008-07-10T11:47:53.998Z</time>
      </trkpt>
      <trkpt lat="46.25424" lon="6.79118">
        <ele>1691.091431</ele>
        <time>2008-07-10T11:48:04.997Z</time>
      </trkpt>
      <trkpt lat="46.25424" lon="6.79114">
        <ele>1690.60376</ele>
        <time>2008-07-10T11:48:05.999Z</time>
      </trkpt>
      <trkpt lat="46.25429" lon="6.7911">
        <ele>1691.091431</ele>
        <time>2008-07-10T11:48:07.001Z</time>
      </trkpt>
      <trkpt lat="46.25444" lon="6.7911">
        <ele>1690.146484</ele>
        <time>2008-07-10T11:48:15.002Z</time>
      </trkpt>
      <trkpt lat="46.25454" lon="6.79097">
        <ele>1686.763184</ele>
        <time>2008-07-10T11:48:20.998Z</time>
      </trkpt>
      <trkpt lat="46.25461" lon="6.79082">
        <ele>1684.843018</ele>
        <time>2008-07-10T11:48:24.998Z</time>
      </trkpt>
      <trkpt lat="46.2548" lon="6.79058">
        <ele>1678.594604</ele>
        <time>2008-07-10T11:48:30.001Z</time>
      </trkpt>
      <trkpt lat="46.25611" lon="6.79223">
        <ele>1662.744995</ele>
        <time>2008-07-10T11:48:55.999Z</time>
      </trkpt>
      <trkpt lat="46.25637" lon="6.79262">
        <ele>1661.769653</ele>
        <time>2008-07-10T11:49:03.999Z</time>
      </trkpt>
      <trkpt lat="46.25637" lon="6.79286">
        <ele>1660.337036</ele>
        <time>2008-07-10T11:49:13.996Z</time>
      </trkpt>
      <trkpt lat="46.25635" lon="6.79288">
        <ele>1659.361694</ele>
        <time>2008-07-10T11:49:53.999Z</time>
      </trkpt>
      <trkpt lat="46.25637" lon="6.79283">
        <ele>1658.904541</ele>
        <time>2008-07-10T11:50:12.998Z</time>
      </trkpt>
      <trkpt lat="46.25628" lon="6.79303">
        <ele>1658.904541</ele>
        <time>2008-07-10T11:50:41.001Z</time>
      </trkpt>
      <trkpt lat="46.25618" lon="6.79333">
        <ele>1658.416748</ele>
        <time>2008-07-10T11:50:47.999Z</time>
      </trkpt>
      <trkpt lat="46.25598" lon="6.79356">
        <ele>1659.361694</ele>
        <time>2008-07-10T11:50:58.004Z</time>
      </trkpt>
      <trkpt lat="46.25564" lon="6.79408">
        <ele>1658.904541</ele>
        <time>2008-07-10T11:51:17.997Z</time>
      </trkpt>
      <trkpt lat="46.25553" lon="6.79429">
        <ele>1662.257324</ele>
        <time>2008-07-10T11:51:27.000Z</time>
      </trkpt>
      <trkpt lat="46.2554" lon="6.79464">
        <ele>1664.665161</ele>
        <time>2008-07-10T11:52:02.001Z</time>
      </trkpt>
      <trkpt lat="46.25536" lon="6.79483">
        <ele>1665.152954</ele>
        <time>2008-07-10T11:52:25.000Z</time>
      </trkpt>
      <trkpt lat="46.25532" lon="6.79552">
        <ele>1667.07312</ele>
        <time>2008-07-10T11:52:45.002Z</time>
      </trkpt>
      <trkpt lat="46.25534" lon="6.79603">
        <ele>1667.07312</ele>
        <time>2008-07-10T11:52:58.999Z</time>
      </trkpt>
      <trkpt lat="46.2554" lon="6.7962">
        <ele>1666.097778</ele>
        <time>2008-07-10T11:53:02.999Z</time>
      </trkpt>
      <trkpt lat="46.2554" lon="6.79642">
        <ele>1665.610107</ele>
        <time>2008-07-10T11:53:06.999Z</time>
      </trkpt>
      <trkpt lat="46.25538" lon="6.79657">
        <ele>1666.097778</ele>
        <time>2008-07-10T11:53:11.000Z</time>
      </trkpt>
      <trkpt lat="46.25525" lon="6.797">
        <ele>1665.610107</ele>
        <time>2008-07-10T11:53:39.002Z</time>
      </trkpt>
      <trkpt lat="46.25523" lon="6.79702">
        <ele>1666.585327</ele>
        <time>2008-07-10T11:54:11.998Z</time>
      </trkpt>
      <trkpt lat="46.25523" lon="6.79738">
        <ele>1664.665161</ele>
        <time>2008-07-10T11:54:18.996Z</time>
      </trkpt>
      <trkpt lat="46.25521" lon="6.79749">
        <ele>1663.689819</ele>
        <time>2008-07-10T11:54:21.001Z</time>
      </trkpt>
      <trkpt lat="46.25502" lon="6.79777">
        <ele>1657.929077</ele>
        <time>2008-07-10T11:54:26.997Z</time>
      </trkpt>
      <trkpt lat="46.25448" lon="6.79882">
        <ele>1653.113281</ele>
        <time>2008-07-10T11:54:49.003Z</time>
      </trkpt>
      <trkpt lat="46.25448" lon="6.79904">
        <ele>1655.033447</ele>
        <time>2008-07-10T11:54:57.997Z</time>
      </trkpt>
      <trkpt lat="46.25467" lon="6.7994">
        <ele>1659.849365</ele>
        <time>2008-07-10T11:55:24.004Z</time>
      </trkpt>
      <trkpt lat="46.25491" lon="6.79964">
        <ele>1664.17749</ele>
        <time>2008-07-10T11:55:47.997Z</time>
      </trkpt>
      <trkpt lat="46.25499" lon="6.79968">
        <ele>1665.152954</ele>
        <time>2008-07-10T11:55:54.002Z</time>
      </trkpt>
      <trkpt lat="46.25525" lon="6.80002">
        <ele>1668.505737</ele>
        <time>2008-07-10T11:56:24.000Z</time>
      </trkpt>
      <trkpt lat="46.25538" lon="6.80028">
        <ele>1673.321533</ele>
        <time>2008-07-10T11:56:41.997Z</time>
      </trkpt>
      <trkpt lat="46.2556" lon="6.80049">
        <ele>1675.241821</ele>
        <time>2008-07-10T11:57:05.999Z</time>
      </trkpt>
      <trkpt lat="46.25572" lon="6.80075">
        <ele>1678.106934</ele>
        <time>2008-07-10T11:57:24.998Z</time>
      </trkpt>
      <trkpt lat="46.25585" lon="6.80094">
        <ele>1682.922729</ele>
        <time>2008-07-10T11:57:41.000Z</time>
      </trkpt>
      <trkpt lat="46.25594" lon="6.8012">
        <ele>1686.763184</ele>
        <time>2008-07-10T11:57:59.999Z</time>
      </trkpt>
      <trkpt lat="46.25611" lon="6.80157">
        <ele>1689.658813</ele>
        <time>2008-07-10T11:58:32.002Z</time>
      </trkpt>
      <trkpt lat="46.25611" lon="6.80185">
        <ele>1694.474609</ele>
        <time>2008-07-10T11:59:07.996Z</time>
      </trkpt>
      <trkpt lat="46.25615" lon="6.80215">
        <ele>1704.075806</ele>
        <time>2008-07-10T12:00:39.001Z</time>
      </trkpt>
      <trkpt lat="46.25622" lon="6.8023">
        <ele>1706.971436</ele>
        <time>2008-07-10T12:01:00.998Z</time>
      </trkpt>
      <trkpt lat="46.2563" lon="6.80266">
        <ele>1715.140137</ele>
        <time>2008-07-10T12:01:30.003Z</time>
      </trkpt>
      <trkpt lat="46.25641" lon="6.80296">
        <ele>1718.49292</ele>
        <time>2008-07-10T12:01:56.001Z</time>
      </trkpt>
      <trkpt lat="46.25648" lon="6.80309">
        <ele>1721.845703</ele>
        <time>2008-07-10T12:02:17.998Z</time>
      </trkpt>
      <trkpt lat="46.25654" lon="6.80305">
        <ele>1722.333374</ele>
        <time>2008-07-10T12:02:24.996Z</time>
      </trkpt>
      <trkpt lat="46.25656" lon="6.80313">
        <ele>1725.716553</ele>
        <time>2008-07-10T12:02:43.002Z</time>
      </trkpt>
      <trkpt lat="46.25656" lon="6.80346">
        <ele>1730.501953</ele>
        <time>2008-07-10T12:03:13.000Z</time>
      </trkpt>
      <trkpt lat="46.2566" lon="6.80371">
        <ele>1734.8302</ele>
        <time>2008-07-10T12:03:42.998Z</time>
      </trkpt>
      <trkpt lat="46.25639" lon="6.80444">
        <ele>1745.894409</ele>
        <time>2008-07-10T12:05:45.997Z</time>
      </trkpt>
      <trkpt lat="46.25641" lon="6.80446">
        <ele>1749.247192</ele>
        <time>2008-07-10T12:06:00.996Z</time>
      </trkpt>
      <trkpt lat="46.25637" lon="6.80468">
        <ele>1753.575439</ele>
        <time>2008-07-10T12:06:31.003Z</time>
      </trkpt>
      <trkpt lat="46.25637" lon="6.80504">
        <ele>1758.878906</ele>
        <time>2008-07-10T12:06:53.001Z</time>
      </trkpt>
      <trkpt lat="46.25641" lon="6.80504">
        <ele>1758.878906</ele>
        <time>2008-07-10T12:06:58.003Z</time>
      </trkpt>
      <trkpt lat="46.2565" lon="6.80496">
        <ele>1760.799072</ele>
        <time>2008-07-10T12:07:10.998Z</time>
      </trkpt>
      <trkpt lat="46.2566" lon="6.80494">
        <ele>1762.71936</ele>
        <time>2008-07-10T12:07:24.001Z</time>
      </trkpt>
      <trkpt lat="46.25667" lon="6.80487">
        <ele>1764.639648</ele>
        <time>2008-07-10T12:07:32.002Z</time>
      </trkpt>
      <trkpt lat="46.2568" lon="6.80481">
        <ele>1767.992432</ele>
        <time>2008-07-10T12:07:48.003Z</time>
      </trkpt>
      <trkpt lat="46.25723" lon="6.80442">
        <ele>1774.728516</ele>
        <time>2008-07-10T12:08:42.003Z</time>
      </trkpt>
      <trkpt lat="46.25731" lon="6.80431">
        <ele>1775.216187</ele>
        <time>2008-07-10T12:08:53.002Z</time>
      </trkpt>
      <trkpt lat="46.25736" lon="6.80431">
        <ele>1774.728516</ele>
        <time>2008-07-10T12:08:56.000Z</time>
      </trkpt>
      <trkpt lat="46.25753" lon="6.80421">
        <ele>1771.832886</ele>
        <time>2008-07-10T12:09:01.002Z</time>
      </trkpt>
      <trkpt lat="46.25774" lon="6.80403">
        <ele>1767.992432</ele>
        <time>2008-07-10T12:09:05.996Z</time>
      </trkpt>
      <trkpt lat="46.25793" lon="6.80393">
        <ele>1766.072266</ele>
        <time>2008-07-10T12:09:09.996Z</time>
      </trkpt>
      <trkpt lat="46.25806" lon="6.80376">
        <ele>1764.151855</ele>
        <time>2008-07-10T12:09:13.003Z</time>
      </trkpt>
      <trkpt lat="46.25826" lon="6.80358">
        <ele>1762.71936</ele>
        <time>2008-07-10T12:09:17.004Z</time>
      </trkpt>
      <trkpt lat="46.25845" lon="6.80352">
        <ele>1760.311401</ele>
        <time>2008-07-10T12:09:20.002Z</time>
      </trkpt>
      <trkpt lat="46.25858" lon="6.80352">
        <ele>1759.33606</ele>
        <time>2008-07-10T12:09:21.997Z</time>
      </trkpt>
      <trkpt lat="46.25909" lon="6.80371">
        <ele>1754.062988</ele>
        <time>2008-07-10T12:09:28.996Z</time>
      </trkpt>
      <trkpt lat="46.25926" lon="6.80384">
        <ele>1751.167358</ele>
        <time>2008-07-10T12:09:32.003Z</time>
      </trkpt>
      <trkpt lat="46.25933" lon="6.80423">
        <ele>1748.790039</ele>
        <time>2008-07-10T12:09:36.003Z</time>
      </trkpt>
      <trkpt lat="46.25961" lon="6.805">
        <ele>1744.918945</ele>
        <time>2008-07-10T12:09:44.997Z</time>
      </trkpt>
      <trkpt lat="46.25978" lon="6.80515">
        <ele>1742.998779</ele>
        <time>2008-07-10T12:09:48.004Z</time>
      </trkpt>
      <trkpt lat="46.26004" lon="6.80526">
        <ele>1738.670532</ele>
        <time>2008-07-10T12:09:52.004Z</time>
      </trkpt>
      <trkpt lat="46.26014" lon="6.80549">
        <ele>1738.213379</ele>
        <time>2008-07-10T12:09:58.000Z</time>
      </trkpt>
      <trkpt lat="46.26023" lon="6.80562">
        <ele>1739.645996</ele>
        <time>2008-07-10T12:10:03.996Z</time>
      </trkpt>
      <trkpt lat="46.26038" lon="6.80597">
        <ele>1742.998779</ele>
        <time>2008-07-10T12:10:22.002Z</time>
      </trkpt>
      <trkpt lat="46.26049" lon="6.80614">
        <ele>1746.839355</ele>
        <time>2008-07-10T12:10:34.003Z</time>
      </trkpt>
      <trkpt lat="46.26064" lon="6.80627">
        <ele>1746.38208</ele>
        <time>2008-07-10T12:10:48.000Z</time>
      </trkpt>
      <trkpt lat="46.26081" lon="6.8067">
        <ele>1749.247192</ele>
        <time>2008-07-10T12:11:12.002Z</time>
      </trkpt>
      <trkpt lat="46.26094" lon="6.8071">
        <ele>1752.630493</ele>
        <time>2008-07-10T12:11:35.002Z</time>
      </trkpt>
      <trkpt lat="46.26092" lon="6.80712">
        <ele>1751.655029</ele>
        <time>2008-07-10T12:11:43.996Z</time>
      </trkpt>
      <trkpt lat="46.26094" lon="6.80715">
        <ele>1751.655029</ele>
        <time>2008-07-10T12:11:47.996Z</time>
      </trkpt>
      <trkpt lat="46.26094" lon="6.80723">
        <ele>1752.142822</ele>
        <time>2008-07-10T12:11:56.999Z</time>
      </trkpt>
      <trkpt lat="46.26092" lon="6.8073">
        <ele>1753.087769</ele>
        <time>2008-07-10T12:12:00.999Z</time>
      </trkpt>
      <trkpt lat="46.26092" lon="6.80809">
        <ele>1755.983276</ele>
        <time>2008-07-10T12:12:34.998Z</time>
      </trkpt>
      <trkpt lat="46.26096" lon="6.80805">
        <ele>1755.983276</ele>
        <time>2008-07-10T12:12:37.002Z</time>
      </trkpt>
      <trkpt lat="46.26105" lon="6.80822">
        <ele>1756.958618</ele>
        <time>2008-07-10T12:12:48.001Z</time>
      </trkpt>
      <trkpt lat="46.26105" lon="6.80826">
        <ele>1757.903442</ele>
        <time>2008-07-10T12:13:12.003Z</time>
      </trkpt>
      <trkpt lat="46.26102" lon="6.8083">
        <ele>1758.878906</ele>
        <time>2008-07-10T12:14:06.003Z</time>
      </trkpt>
      <trkpt lat="46.26107" lon="6.80835">
        <ele>1759.33606</ele>
        <time>2008-07-10T12:14:09.001Z</time>
      </trkpt>
      <trkpt lat="46.26109" lon="6.80841">
        <ele>1760.311401</ele>
        <time>2008-07-10T12:14:13.001Z</time>
      </trkpt>
      <trkpt lat="46.2613" lon="6.80861">
        <ele>1760.311401</ele>
        <time>2008-07-10T12:14:32.001Z</time>
      </trkpt>
      <trkpt lat="46.26145" lon="6.80867">
        <ele>1759.823853</ele>
        <time>2008-07-10T12:14:38.999Z</time>
      </trkpt>
      <trkpt lat="46.26193" lon="6.80929">
        <ele>1760.311401</ele>
        <time>2008-07-10T12:15:23.003Z</time>
      </trkpt>
      <trkpt lat="46.26197" lon="6.80938">
        <ele>1756.958618</ele>
        <time>2008-07-10T12:15:30.001Z</time>
      </trkpt>
      <trkpt lat="46.26212" lon="6.80959">
        <ele>1754.062988</ele>
        <time>2008-07-10T12:15:42.002Z</time>
      </trkpt>
      <trkpt lat="46.26244" lon="6.81032">
        <ele>1752.630493</ele>
        <time>2008-07-10T12:15:49.000Z</time>
      </trkpt>
      <trkpt lat="46.26248" lon="6.81032">
        <ele>1751.655029</ele>
        <time>2008-07-10T12:15:54.003Z</time>
      </trkpt>
      <trkpt lat="46.26251" lon="6.81036">
        <ele>1751.167358</ele>
        <time>2008-07-10T12:15:58.003Z</time>
      </trkpt>
      <trkpt lat="46.26253" lon="6.81054">
        <ele>1750.710205</ele>
        <time>2008-07-10T12:16:06.004Z</time>
      </trkpt>
      <trkpt lat="46.26276" lon="6.81092">
        <ele>1746.839355</ele>
        <time>2008-07-10T12:16:18.998Z</time>
      </trkpt>
      <trkpt lat="46.26283" lon="6.81105">
        <ele>1743.48645</ele>
        <time>2008-07-10T12:16:25.997Z</time>
      </trkpt>
      <trkpt lat="46.26283" lon="6.81109">
        <ele>1744.461792</ele>
        <time>2008-07-10T12:16:28.001Z</time>
      </trkpt>
      <trkpt lat="46.26343" lon="6.81176">
        <ele>1736.750366</ele>
        <time>2008-07-10T12:17:26.002Z</time>
      </trkpt>
      <trkpt lat="46.26373" lon="6.81221">
        <ele>1730.501953</ele>
        <time>2008-07-10T12:18:05.003Z</time>
      </trkpt>
      <trkpt lat="46.26377" lon="6.81236">
        <ele>1729.069336</ele>
        <time>2008-07-10T12:18:17.997Z</time>
      </trkpt>
      <trkpt lat="46.26381" lon="6.81238">
        <ele>1730.0448</ele>
        <time>2008-07-10T12:18:23.000Z</time>
      </trkpt>
      <trkpt lat="46.26405" lon="6.81273">
        <ele>1721.38855</ele>
        <time>2008-07-10T12:18:55.996Z</time>
      </trkpt>
      <trkpt lat="46.26444" lon="6.81345">
        <ele>1718.49292</ele>
        <time>2008-07-10T12:19:00.998Z</time>
      </trkpt>
      <trkpt lat="46.26452" lon="6.8135">
        <ele>1716.084961</ele>
        <time>2008-07-10T12:19:04.999Z</time>
      </trkpt>
      <trkpt lat="46.26467" lon="6.81365">
        <ele>1713.677002</ele>
        <time>2008-07-10T12:19:11.004Z</time>
      </trkpt>
      <trkpt lat="46.26469" lon="6.81367">
        <ele>1712.732178</ele>
        <time>2008-07-10T12:19:14.002Z</time>
      </trkpt>
      <trkpt lat="46.26465" lon="6.81371">
        <ele>1713.219727</ele>
        <time>2008-07-10T12:19:21.000Z</time>
      </trkpt>
      <trkpt lat="46.26504" lon="6.81384">
        <ele>1712.732178</ele>
        <time>2008-07-10T12:21:14.003Z</time>
      </trkpt>
      <trkpt lat="46.2651" lon="6.81391">
        <ele>1710.81189</ele>
        <time>2008-07-10T12:21:18.003Z</time>
      </trkpt>
      <trkpt lat="46.26514" lon="6.81393">
        <ele>1709.348877</ele>
        <time>2008-07-10T12:21:19.999Z</time>
      </trkpt>
      <trkpt lat="46.26514" lon="6.81397">
        <ele>1707.91626</ele>
        <time>2008-07-10T12:21:22.003Z</time>
      </trkpt>
      <trkpt lat="46.26519" lon="6.81406">
        <ele>1705.508423</ele>
        <time>2008-07-10T12:21:25.001Z</time>
      </trkpt>
      <trkpt lat="46.26521" lon="6.81414">
        <ele>1703.588257</ele>
        <time>2008-07-10T12:21:27.999Z</time>
      </trkpt>
      <trkpt lat="46.26523" lon="6.81427">
        <ele>1701.667847</ele>
        <time>2008-07-10T12:21:33.002Z</time>
      </trkpt>
      <trkpt lat="46.26521" lon="6.81444">
        <ele>1698.772339</ele>
        <time>2008-07-10T12:21:41.003Z</time>
      </trkpt>
      <trkpt lat="46.26504" lon="6.81485">
        <ele>1689.658813</ele>
        <time>2008-07-10T12:21:53.004Z</time>
      </trkpt>
      <trkpt lat="46.26487" lon="6.81506">
        <ele>1685.330566</ele>
        <time>2008-07-10T12:21:59.000Z</time>
      </trkpt>
      <trkpt lat="46.26525" lon="6.81496">
        <ele>1675.72937</ele>
        <time>2008-07-10T12:22:08.996Z</time>
      </trkpt>
      <trkpt lat="46.26542" lon="6.81496">
        <ele>1670.425903</ele>
        <time>2008-07-10T12:22:15.001Z</time>
      </trkpt>
      <trkpt lat="46.26551" lon="6.815">
        <ele>1668.017944</ele>
        <time>2008-07-10T12:22:16.997Z</time>
      </trkpt>
      <trkpt lat="46.26581" lon="6.81504">
        <ele>1662.257324</ele>
        <time>2008-07-10T12:22:24.004Z</time>
      </trkpt>
      <trkpt lat="46.26577" lon="6.81532">
        <ele>1657.929077</ele>
        <time>2008-07-10T12:22:28.998Z</time>
      </trkpt>
      <trkpt lat="46.26579" lon="6.81549">
        <ele>1656.984131</ele>
        <time>2008-07-10T12:22:31.002Z</time>
      </trkpt>
      <trkpt lat="46.26587" lon="6.81562">
        <ele>1654.088623</ele>
        <time>2008-07-10T12:22:34.000Z</time>
      </trkpt>
      <trkpt lat="46.26592" lon="6.81584">
        <ele>1651.680664</ele>
        <time>2008-07-10T12:22:39.003Z</time>
      </trkpt>
      <trkpt lat="46.26592" lon="6.81599">
        <ele>1647.84021</ele>
        <time>2008-07-10T12:22:43.997Z</time>
      </trkpt>
      <trkpt lat="46.2659" lon="6.81609">
        <ele>1643.999878</ele>
        <time>2008-07-10T12:22:47.004Z</time>
      </trkpt>
      <trkpt lat="46.26585" lon="6.8162">
        <ele>1640.616455</ele>
        <time>2008-07-10T12:22:48.999Z</time>
      </trkpt>
      <trkpt lat="46.26572" lon="6.81676">
        <ele>1633.910889</ele>
        <time>2008-07-10T12:22:57.000Z</time>
      </trkpt>
      <trkpt lat="46.26572" lon="6.8173">
        <ele>1628.607422</ele>
        <time>2008-07-10T12:23:02.003Z</time>
      </trkpt>
      <trkpt lat="46.26568" lon="6.81779">
        <ele>1626.199341</ele>
        <time>2008-07-10T12:23:06.003Z</time>
      </trkpt>
      <trkpt lat="46.26575" lon="6.81828">
        <ele>1620.438721</ele>
        <time>2008-07-10T12:23:13.001Z</time>
      </trkpt>
      <trkpt lat="46.26579" lon="6.81925">
        <ele>1603.61377</ele>
        <time>2008-07-10T12:23:30.998Z</time>
      </trkpt>
      <trkpt lat="46.26579" lon="6.81936">
        <ele>1602.668945</ele>
        <time>2008-07-10T12:23:33.003Z</time>
      </trkpt>
      <trkpt lat="46.26564" lon="6.8197">
        <ele>1598.340698</ele>
        <time>2008-07-10T12:23:38.999Z</time>
      </trkpt>
      <trkpt lat="46.26566" lon="6.82051">
        <ele>1589.196655</ele>
        <time>2008-07-10T12:23:48.002Z</time>
      </trkpt>
      <trkpt lat="46.26575" lon="6.82084">
        <ele>1585.843872</ele>
        <time>2008-07-10T12:23:52.002Z</time>
      </trkpt>
      <trkpt lat="46.26581" lon="6.82096">
        <ele>1583.923706</ele>
        <time>2008-07-10T12:23:53.998Z</time>
      </trkpt>
      <trkpt lat="46.2659" lon="6.82105">
        <ele>1581.515869</ele>
        <time>2008-07-10T12:23:56.996Z</time>
      </trkpt>
      <trkpt lat="46.26611" lon="6.82135">
        <ele>1576.699951</ele>
        <time>2008-07-10T12:24:04.003Z</time>
      </trkpt>
      <trkpt lat="46.26652" lon="6.82212">
        <ele>1561.795166</ele>
        <time>2008-07-10T12:24:19.996Z</time>
      </trkpt>
      <trkpt lat="46.26652" lon="6.82247">
        <ele>1556.034546</ele>
        <time>2008-07-10T12:24:24.998Z</time>
      </trkpt>
      <trkpt lat="46.2665" lon="6.82253">
        <ele>1556.034546</ele>
        <time>2008-07-10T12:24:26.001Z</time>
      </trkpt>
      <trkpt lat="46.26617" lon="6.82296">
        <ele>1548.353516</ele>
        <time>2008-07-10T12:24:32.999Z</time>
      </trkpt>
      <trkpt lat="46.26605" lon="6.82358">
        <ele>1534.88147</ele>
        <time>2008-07-10T12:24:49.000Z</time>
      </trkpt>
      <trkpt lat="46.26607" lon="6.82365">
        <ele>1534.393677</ele>
        <time>2008-07-10T12:24:50.003Z</time>
      </trkpt>
      <trkpt lat="46.2663" lon="6.82384">
        <ele>1531.528564</ele>
        <time>2008-07-10T12:24:54.996Z</time>
      </trkpt>
      <trkpt lat="46.26665" lon="6.82399">
        <ele>1529.120605</ele>
        <time>2008-07-10T12:25:01.001Z</time>
      </trkpt>
      <trkpt lat="46.26718" lon="6.82483">
        <ele>1514.215942</ele>
        <time>2008-07-10T12:25:20.001Z</time>
      </trkpt>
      <trkpt lat="46.26725" lon="6.825">
        <ele>1512.295654</ele>
        <time>2008-07-10T12:25:24.001Z</time>
      </trkpt>
      <trkpt lat="46.26716" lon="6.82508">
        <ele>1509.887817</ele>
        <time>2008-07-10T12:25:29.997Z</time>
      </trkpt>
      <trkpt lat="46.26718" lon="6.82511">
        <ele>1508.4552</ele>
        <time>2008-07-10T12:25:39.000Z</time>
      </trkpt>
      <trkpt lat="46.26716" lon="6.82513">
        <ele>1508.912354</ele>
        <time>2008-07-10T12:25:41.998Z</time>
      </trkpt>
      <trkpt lat="46.26714" lon="6.82526">
        <ele>1505.071899</ele>
        <time>2008-07-10T12:25:47.001Z</time>
      </trkpt>
      <trkpt lat="46.26688" lon="6.82581">
        <ele>1493.550537</ele>
        <time>2008-07-10T12:26:00.004Z</time>
      </trkpt>
      <trkpt lat="46.26682" lon="6.82599">
        <ele>1489.709961</ele>
        <time>2008-07-10T12:26:04.004Z</time>
      </trkpt>
      <trkpt lat="46.26671" lon="6.82614">
        <ele>1485.869507</ele>
        <time>2008-07-10T12:26:07.996Z</time>
      </trkpt>
      <trkpt lat="46.26557" lon="6.82614">
        <ele>1482.973877</ele>
        <time>2008-07-10T12:26:11.996Z</time>
      </trkpt>
      <trkpt lat="46.26547" lon="6.82629">
        <ele>1480.078247</ele>
        <time>2008-07-10T12:26:16.999Z</time>
      </trkpt>
      <trkpt lat="46.26532" lon="6.82626">
        <ele>1476.725464</ele>
        <time>2008-07-10T12:26:23.997Z</time>
      </trkpt>
      <trkpt lat="46.26497" lon="6.82639">
        <ele>1466.149048</ele>
        <time>2008-07-10T12:26:34.002Z</time>
      </trkpt>
      <trkpt lat="46.26459" lon="6.82637">
        <ele>1458.468018</ele>
        <time>2008-07-10T12:26:45.001Z</time>
      </trkpt>
      <trkpt lat="46.26437" lon="6.82629">
        <ele>1453.652222</ele>
        <time>2008-07-10T12:26:51.999Z</time>
      </trkpt>
      <trkpt lat="46.2642" lon="6.82629">
        <ele>1450.299438</ele>
        <time>2008-07-10T12:26:54.997Z</time>
      </trkpt>
      <trkpt lat="46.26379" lon="6.82637">
        <ele>1443.563354</ele>
        <time>2008-07-10T12:27:02.998Z</time>
      </trkpt>
      <trkpt lat="46.26317" lon="6.82637">
        <ele>1433.474365</ele>
        <time>2008-07-10T12:27:24.002Z</time>
      </trkpt>
      <trkpt lat="46.26253" lon="6.82644">
        <ele>1424.330444</ele>
        <time>2008-07-10T12:27:33.998Z</time>
      </trkpt>
      <trkpt lat="46.26229" lon="6.82659">
        <ele>1421.434814</ele>
        <time>2008-07-10T12:27:37.999Z</time>
      </trkpt>
      <trkpt lat="46.26197" lon="6.82639">
        <ele>1419.514648</ele>
        <time>2008-07-10T12:27:47.002Z</time>
      </trkpt>
      <trkpt lat="46.2619" lon="6.82639">
        <ele>1420.002197</ele>
        <time>2008-07-10T12:27:51.002Z</time>
      </trkpt>
      <trkpt lat="46.26145" lon="6.82616">
        <ele>1418.082031</ele>
        <time>2008-07-10T12:28:11.004Z</time>
      </trkpt>
      <trkpt lat="46.26141" lon="6.82616">
        <ele>1410.401001</ele>
        <time>2008-07-10T12:28:58.999Z</time>
      </trkpt>
      <trkpt lat="46.26128" lon="6.82594">
        <ele>1408.480835</ele>
        <time>2008-07-10T12:29:01.997Z</time>
      </trkpt>
      <trkpt lat="46.26094" lon="6.82472">
        <ele>1405.097534</ele>
        <time>2008-07-10T12:29:06.999Z</time>
      </trkpt>
      <trkpt lat="46.26092" lon="6.82448">
        <ele>1404.609741</ele>
        <time>2008-07-10T12:29:09.004Z</time>
      </trkpt>
      <trkpt lat="46.26087" lon="6.82433">
        <ele>1403.177368</ele>
        <time>2008-07-10T12:29:11.000Z</time>
      </trkpt>
      <trkpt lat="46.26083" lon="6.82328">
        <ele>1390.192749</ele>
        <time>2008-07-10T12:29:21.998Z</time>
      </trkpt>
      <trkpt lat="46.2607" lon="6.82281">
        <ele>1387.327759</ele>
        <time>2008-07-10T12:29:25.999Z</time>
      </trkpt>
      <trkpt lat="46.26062" lon="6.82249">
        <ele>1385.407349</ele>
        <time>2008-07-10T12:29:28.997Z</time>
      </trkpt>
      <trkpt lat="46.2606" lon="6.82232">
        <ele>1383.487183</ele>
        <time>2008-07-10T12:29:31.001Z</time>
      </trkpt>
      <trkpt lat="46.26045" lon="6.82189">
        <ele>1380.591553</ele>
        <time>2008-07-10T12:29:36.004Z</time>
      </trkpt>
      <trkpt lat="46.26045" lon="6.82165">
        <ele>1379.616211</ele>
        <time>2008-07-10T12:29:38.000Z</time>
      </trkpt>
      <trkpt lat="46.2604" lon="6.82131">
        <ele>1377.23877</ele>
        <time>2008-07-10T12:29:40.998Z</time>
      </trkpt>
      <trkpt lat="46.26042" lon="6.82094">
        <ele>1375.288086</ele>
        <time>2008-07-10T12:29:44.998Z</time>
      </trkpt>
      <trkpt lat="46.26027" lon="6.82">
        <ele>1370.015015</ele>
        <time>2008-07-10T12:29:56.999Z</time>
      </trkpt>
      <trkpt lat="46.26014" lon="6.81936">
        <ele>1366.662231</ele>
        <time>2008-07-10T12:30:06.002Z</time>
      </trkpt>
      <trkpt lat="46.26006" lon="6.81908">
        <ele>1363.766602</ele>
        <time>2008-07-10T12:30:10.002Z</time>
      </trkpt>
      <trkpt lat="46.25987" lon="6.8186">
        <ele>1357.03064</ele>
        <time>2008-07-10T12:30:17.001Z</time>
      </trkpt>
      <trkpt lat="46.25972" lon="6.81835">
        <ele>1350.294556</ele>
        <time>2008-07-10T12:30:21.001Z</time>
      </trkpt>
      <trkpt lat="46.25952" lon="6.81792">
        <ele>1345.996826</ele>
        <time>2008-07-10T12:30:26.997Z</time>
      </trkpt>
      <trkpt lat="46.25944" lon="6.8177">
        <ele>1342.613525</ele>
        <time>2008-07-10T12:30:30.004Z</time>
      </trkpt>
      <trkpt lat="46.25914" lon="6.81745">
        <ele>1340.205566</ele>
        <time>2008-07-10T12:30:36.000Z</time>
      </trkpt>
      <trkpt lat="46.25896" lon="6.81723">
        <ele>1336.365112</ele>
        <time>2008-07-10T12:30:38.998Z</time>
      </trkpt>
      <trkpt lat="46.25886" lon="6.8171">
        <ele>1335.420166</ele>
        <time>2008-07-10T12:30:41.003Z</time>
      </trkpt>
      <trkpt lat="46.2586" lon="6.81659">
        <ele>1334.444946</ele>
        <time>2008-07-10T12:30:50.999Z</time>
      </trkpt>
      <trkpt lat="46.25847" lon="6.81657">
        <ele>1333.5</ele>
        <time>2008-07-10T12:31:07.000Z</time>
      </trkpt>
      <trkpt lat="46.2583" lon="6.81642">
        <ele>1327.70874</ele>
        <time>2008-07-10T12:31:12.003Z</time>
      </trkpt>
      <trkpt lat="46.25815" lon="6.81624">
        <ele>1320.027832</ele>
        <time>2008-07-10T12:31:16.003Z</time>
      </trkpt>
      <trkpt lat="46.25763" lon="6.81588">
        <ele>1309.938965</ele>
        <time>2008-07-10T12:31:27.002Z</time>
      </trkpt>
      <trkpt lat="46.25755" lon="6.81579">
        <ele>1307.043457</ele>
        <time>2008-07-10T12:31:28.998Z</time>
      </trkpt>
      <trkpt lat="46.25738" lon="6.81569">
        <ele>1305.123047</ele>
        <time>2008-07-10T12:31:32.998Z</time>
      </trkpt>
      <trkpt lat="46.25716" lon="6.81547">
        <ele>1301.770264</ele>
        <time>2008-07-10T12:31:39.003Z</time>
      </trkpt>
      <trkpt lat="46.25665" lon="6.81474">
        <ele>1286.865601</ele>
        <time>2008-07-10T12:31:50.002Z</time>
      </trkpt>
      <trkpt lat="46.25635" lon="6.81423">
        <ele>1279.18457</ele>
        <time>2008-07-10T12:31:57.000Z</time>
      </trkpt>
      <trkpt lat="46.25618" lon="6.8138">
        <ele>1277.233887</ele>
        <time>2008-07-10T12:32:02.003Z</time>
      </trkpt>
      <trkpt lat="46.25572" lon="6.81283">
        <ele>1283.4823</ele>
        <time>2008-07-10T12:32:30.998Z</time>
      </trkpt>
      <trkpt lat="46.25536" lon="6.81187">
        <ele>1282.537354</ele>
        <time>2008-07-10T12:33:00.996Z</time>
      </trkpt>
      <trkpt lat="46.25521" lon="6.81174">
        <ele>1283.025146</ele>
        <time>2008-07-10T12:33:07.001Z</time>
      </trkpt>
      <trkpt lat="46.25472" lon="6.81073">
        <ele>1279.18457</ele>
        <time>2008-07-10T12:33:30.001Z</time>
      </trkpt>
      <trkpt lat="46.25469" lon="6.81069">
        <ele>1279.18457</ele>
        <time>2008-07-10T12:33:31.003Z</time>
      </trkpt>
      <trkpt lat="46.25379" lon="6.81039">
        <ele>1275.313721</ele>
        <time>2008-07-10T12:33:39.004Z</time>
      </trkpt>
      <trkpt lat="46.25369" lon="6.81032">
        <ele>1275.313721</ele>
        <time>2008-07-10T12:33:39.997Z</time>
      </trkpt>
      <trkpt lat="46.25396" lon="6.81026">
        <ele>1273.393433</ele>
        <time>2008-07-10T12:33:43.004Z</time>
      </trkpt>
      <trkpt lat="46.2539" lon="6.81015">
        <ele>1270.040527</ele>
        <time>2008-07-10T12:33:46.002Z</time>
      </trkpt>
      <trkpt lat="46.25362" lon="6.81004">
        <ele>1268.120361</ele>
        <time>2008-07-10T12:33:47.998Z</time>
      </trkpt>
      <trkpt lat="46.25334" lon="6.81">
        <ele>1265.224854</ele>
        <time>2008-07-10T12:33:50.003Z</time>
      </trkpt>
      <trkpt lat="46.25321" lon="6.80989">
        <ele>1262.816895</ele>
        <time>2008-07-10T12:33:51.998Z</time>
      </trkpt>
      <trkpt lat="46.25304" lon="6.80981">
        <ele>1261.384277</ele>
        <time>2008-07-10T12:33:54.996Z</time>
      </trkpt>
      <trkpt lat="46.25253" lon="6.80968">
        <ele>1254.19104</ele>
        <time>2008-07-10T12:34:03.999Z</time>
      </trkpt>
      <trkpt lat="46.2524" lon="6.80968">
        <ele>1250.320068</ele>
        <time>2008-07-10T12:34:06.004Z</time>
      </trkpt>
      <trkpt lat="46.25203" lon="6.80957">
        <ele>1246.967285</ele>
        <time>2008-07-10T12:34:12.000Z</time>
      </trkpt>
      <trkpt lat="46.25165" lon="6.8094">
        <ele>1241.694214</ele>
        <time>2008-07-10T12:34:18.998Z</time>
      </trkpt>
      <trkpt lat="46.25072" lon="6.80891">
        <ele>1220.053467</ele>
        <time>2008-07-10T12:34:37.998Z</time>
      </trkpt>
      <trkpt lat="46.25019" lon="6.80873">
        <ele>1208.989258</ele>
        <time>2008-07-10T12:34:55.001Z</time>
      </trkpt>
      <trkpt lat="46.25006" lon="6.80891">
        <ele>1206.581299</ele>
        <time>2008-07-10T12:35:00.004Z</time>
      </trkpt>
      <trkpt lat="46.25002" lon="6.80901">
        <ele>1206.124146</ele>
        <time>2008-07-10T12:35:03.002Z</time>
      </trkpt>
      <trkpt lat="46.25006" lon="6.80901">
        <ele>1205.636353</ele>
        <time>2008-07-10T12:35:16.999Z</time>
      </trkpt>
      <trkpt lat="46.25064" lon="6.80953">
        <ele>1205.148682</ele>
        <time>2008-07-10T12:36:40.997Z</time>
      </trkpt>
      <trkpt lat="46.25077" lon="6.80959">
        <ele>1203.716187</ele>
        <time>2008-07-10T12:36:55.002Z</time>
      </trkpt>
      <trkpt lat="46.2509" lon="6.80987">
        <ele>1199.387939</ele>
        <time>2008-07-10T12:37:06.001Z</time>
      </trkpt>
      <trkpt lat="46.25077" lon="6.81002">
        <ele>1198.412598</ele>
        <time>2008-07-10T12:37:08.999Z</time>
      </trkpt>
      <trkpt lat="46.25066" lon="6.81021">
        <ele>1196.004639</ele>
        <time>2008-07-10T12:37:15.004Z</time>
      </trkpt>
      <trkpt lat="46.25083" lon="6.81041">
        <ele>1195.547485</ele>
        <time>2008-07-10T12:37:21.000Z</time>
      </trkpt>
      <trkpt lat="46.25094" lon="6.81045">
        <ele>1195.059814</ele>
        <time>2008-07-10T12:37:22.996Z</time>
      </trkpt>
      <trkpt lat="46.25175" lon="6.81112">
        <ele>1191.21936</ele>
        <time>2008-07-10T12:37:34.997Z</time>
      </trkpt>
      <trkpt lat="46.25218" lon="6.81172">
        <ele>1187.378906</ele>
        <time>2008-07-10T12:37:42.004Z</time>
      </trkpt>
      <trkpt lat="46.25229" lon="6.81195">
        <ele>1186.403442</ele>
        <time>2008-07-10T12:37:44.000Z</time>
      </trkpt>
      <trkpt lat="46.25255" lon="6.81262">
        <ele>1183.507935</ele>
        <time>2008-07-10T12:37:49.002Z</time>
      </trkpt>
      <trkpt lat="46.25272" lon="6.8132">
        <ele>1179.179688</ele>
        <time>2008-07-10T12:37:53.003Z</time>
      </trkpt>
      <trkpt lat="46.25317" lon="6.81489">
        <ele>1177.259521</ele>
        <time>2008-07-10T12:38:05.997Z</time>
      </trkpt>
      <trkpt lat="46.25328" lon="6.81654">
        <ele>1173.419067</ele>
        <time>2008-07-10T12:38:20.003Z</time>
      </trkpt>
      <trkpt lat="46.25351" lon="6.81712">
        <ele>1171.011108</ele>
        <time>2008-07-10T12:38:25.999Z</time>
      </trkpt>
      <trkpt lat="46.25381" lon="6.81738">
        <ele>1169.578491</ele>
        <time>2008-07-10T12:38:29.999Z</time>
      </trkpt>
      <trkpt lat="46.25448" lon="6.81803">
        <ele>1166.682983</ele>
        <time>2008-07-10T12:38:38.000Z</time>
      </trkpt>
      <trkpt lat="46.25476" lon="6.81843">
        <ele>1165.738159</ele>
        <time>2008-07-10T12:38:42.000Z</time>
      </trkpt>
      <trkpt lat="46.25489" lon="6.81895">
        <ele>1162.385254</ele>
        <time>2008-07-10T12:38:46.000Z</time>
      </trkpt>
      <trkpt lat="46.25459" lon="6.81985">
        <ele>1162.385254</ele>
        <time>2008-07-10T12:38:51.003Z</time>
      </trkpt>
      <trkpt lat="46.25469" lon="6.82015">
        <ele>1159.489746</ele>
        <time>2008-07-10T12:38:54.001Z</time>
      </trkpt>
      <trkpt lat="46.25499" lon="6.82086">
        <ele>1159.489746</ele>
        <time>2008-07-10T12:39:02.002Z</time>
      </trkpt>
      <trkpt lat="46.2551" lon="6.82154">
        <ele>1157.569458</ele>
        <time>2008-07-10T12:39:09.000Z</time>
      </trkpt>
      <trkpt lat="46.25551" lon="6.82292">
        <ele>1154.673828</ele>
        <time>2008-07-10T12:39:22.003Z</time>
      </trkpt>
      <trkpt lat="46.25587" lon="6.82405">
        <ele>1151.321045</ele>
        <time>2008-07-10T12:39:33.002Z</time>
      </trkpt>
      <trkpt lat="46.25652" lon="6.82592">
        <ele>1149.400757</ele>
        <time>2008-07-10T12:39:53.004Z</time>
      </trkpt>
      <trkpt lat="46.25663" lon="6.82603">
        <ele>1148.913086</ele>
        <time>2008-07-10T12:39:56.002Z</time>
      </trkpt>
      <trkpt lat="46.25669" lon="6.82601">
        <ele>1148.913086</ele>
        <time>2008-07-10T12:40:04.002Z</time>
      </trkpt>
      <trkpt lat="46.25663" lon="6.8259">
        <ele>1148.913086</ele>
        <time>2008-07-10T12:40:09.998Z</time>
      </trkpt>
      <trkpt lat="46.25675" lon="6.82575">
        <ele>1148.913086</ele>
        <time>2008-07-10T12:40:16.997Z</time>
      </trkpt>
      <trkpt lat="46.25684" lon="6.82592">
        <ele>1144.09729</ele>
        <time>2008-07-10T12:45:10.999Z</time>
      </trkpt>
      <trkpt lat="46.25714" lon="6.82618">
        <ele>1143.152344</ele>
        <time>2008-07-10T12:45:17.997Z</time>
      </trkpt>
      <trkpt lat="46.25746" lon="6.8265">
        <ele>1142.177002</ele>
        <time>2008-07-10T12:45:24.002Z</time>
      </trkpt>
      <trkpt lat="46.25772" lon="6.82682">
        <ele>1142.177002</ele>
        <time>2008-07-10T12:45:28.996Z</time>
      </trkpt>
      <trkpt lat="46.25776" lon="6.82702">
        <ele>1140.744507</ele>
        <time>2008-07-10T12:45:31.000Z</time>
      </trkpt>
      <trkpt lat="46.258" lon="6.82792">
        <ele>1139.31189</ele>
        <time>2008-07-10T12:45:40.003Z</time>
      </trkpt>
      <trkpt lat="46.25871" lon="6.82908">
        <ele>1136.41626</ele>
        <time>2008-07-10T12:45:54.000Z</time>
      </trkpt>
      <trkpt lat="46.25892" lon="6.82963">
        <ele>1134.983765</ele>
        <time>2008-07-10T12:45:59.996Z</time>
      </trkpt>
      <trkpt lat="46.25905" lon="6.83021">
        <ele>1134.496094</ele>
        <time>2008-07-10T12:46:06.001Z</time>
      </trkpt>
      <trkpt lat="46.25991" lon="6.83154">
        <ele>1131.600464</ele>
        <time>2008-07-10T12:46:23.998Z</time>
      </trkpt>
      <trkpt lat="46.26025" lon="6.83176">
        <ele>1130.167847</ele>
        <time>2008-07-10T12:46:29.001Z</time>
      </trkpt>
      <trkpt lat="46.26117" lon="6.83249">
        <ele>1131.600464</ele>
        <time>2008-07-10T12:46:42.997Z</time>
      </trkpt>
      <trkpt lat="46.26135" lon="6.83266">
        <ele>1130.167847</ele>
        <time>2008-07-10T12:46:46.004Z</time>
      </trkpt>
      <trkpt lat="46.26158" lon="6.83281">
        <ele>1125.839722</ele>
        <time>2008-07-10T12:46:49.996Z</time>
      </trkpt>
      <trkpt lat="46.2622" lon="6.83305">
        <ele>1129.680298</ele>
        <time>2008-07-10T12:47:13.004Z</time>
      </trkpt>
      <trkpt lat="46.26259" lon="6.83305">
        <ele>1133.063477</ele>
        <time>2008-07-10T12:47:32.997Z</time>
      </trkpt>
      <trkpt lat="46.26308" lon="6.83294">
        <ele>1137.848877</ele>
        <time>2008-07-10T12:48:06.002Z</time>
      </trkpt>
      <trkpt lat="46.26356" lon="6.83294">
        <ele>1142.664673</ele>
        <time>2008-07-10T12:48:36.000Z</time>
      </trkpt>
      <trkpt lat="46.26386" lon="6.83287">
        <ele>1144.09729</ele>
        <time>2008-07-10T12:48:53.997Z</time>
      </trkpt>
      <trkpt lat="46.26418" lon="6.83285">
        <ele>1146.99292</ele>
        <time>2008-07-10T12:49:11.001Z</time>
      </trkpt>
      <trkpt lat="46.2648" lon="6.8329">
        <ele>1148.425415</ele>
        <time>2008-07-10T12:49:32.998Z</time>
      </trkpt>
      <trkpt lat="46.26583" lon="6.83287">
        <ele>1141.232178</ele>
        <time>2008-07-10T12:49:58.996Z</time>
      </trkpt>
      <trkpt lat="46.26684" lon="6.83272">
        <ele>1138.336548</ele>
        <time>2008-07-10T12:50:21.002Z</time>
      </trkpt>
      <trkpt lat="46.26708" lon="6.83266">
        <ele>1136.904053</ele>
        <time>2008-07-10T12:50:25.996Z</time>
      </trkpt>
      <trkpt lat="46.26755" lon="6.83227">
        <ele>1134.983765</ele>
        <time>2008-07-10T12:50:36.001Z</time>
      </trkpt>
      <trkpt lat="46.26802" lon="6.83204">
        <ele>1132.575806</ele>
        <time>2008-07-10T12:50:42.999Z</time>
      </trkpt>
      <trkpt lat="46.26881" lon="6.83189">
        <ele>1129.192505</ele>
        <time>2008-07-10T12:50:52.996Z</time>
      </trkpt>
      <trkpt lat="46.26922" lon="6.83161">
        <ele>1124.407227</ele>
        <time>2008-07-10T12:50:57.998Z</time>
      </trkpt>
      <trkpt lat="46.26931" lon="6.83154">
        <ele>1124.894897</ele>
        <time>2008-07-10T12:50:59.001Z</time>
      </trkpt>
      <trkpt lat="46.27029" lon="6.83053">
        <ele>1118.158813</ele>
        <time>2008-07-10T12:51:12.004Z</time>
      </trkpt>
      <trkpt lat="46.27074" lon="6.82996">
        <ele>1116.695801</ele>
        <time>2008-07-10T12:51:19.996Z</time>
      </trkpt>
      <trkpt lat="46.27165" lon="6.82893">
        <ele>1115.263184</ele>
        <time>2008-07-10T12:51:35.997Z</time>
      </trkpt>
      <trkpt lat="46.27242" lon="6.82813">
        <ele>1109.014771</ele>
        <time>2008-07-10T12:51:51.998Z</time>
      </trkpt>
      <trkpt lat="46.27285" lon="6.8276">
        <ele>1106.119141</ele>
        <time>2008-07-10T12:51:59.999Z</time>
      </trkpt>
      <trkpt lat="46.27293" lon="6.82729">
        <ele>1106.119141</ele>
        <time>2008-07-10T12:52:02.997Z</time>
      </trkpt>
      <trkpt lat="46.27321" lon="6.82652">
        <ele>1109.014771</ele>
        <time>2008-07-10T12:52:14.998Z</time>
      </trkpt>
      <trkpt lat="46.27332" lon="6.82596">
        <ele>1110.447388</ele>
        <time>2008-07-10T12:52:25.997Z</time>
      </trkpt>
      <trkpt lat="46.27338" lon="6.82534">
        <ele>1111.9104</ele>
        <time>2008-07-10T12:52:39.000Z</time>
      </trkpt>
      <trkpt lat="46.27371" lon="6.82457">
        <ele>1113.830688</ele>
        <time>2008-07-10T12:53:00.004Z</time>
      </trkpt>
      <trkpt lat="46.27383" lon="6.82408">
        <ele>1116.238525</ele>
        <time>2008-07-10T12:53:11.996Z</time>
      </trkpt>
      <trkpt lat="46.27396" lon="6.82335">
        <ele>1117.671143</ele>
        <time>2008-07-10T12:53:30.002Z</time>
      </trkpt>
      <trkpt lat="46.27407" lon="6.82313">
        <ele>1118.158813</ele>
        <time>2008-07-10T12:53:35.998Z</time>
      </trkpt>
      <trkpt lat="46.27437" lon="6.82266">
        <ele>1120.56665</ele>
        <time>2008-07-10T12:53:50.997Z</time>
      </trkpt>
      <trkpt lat="46.27465" lon="6.82172">
        <ele>1123.431885</ele>
        <time>2008-07-10T12:54:14.999Z</time>
      </trkpt>
      <trkpt lat="46.27471" lon="6.82157">
        <ele>1123.919434</ele>
        <time>2008-07-10T12:54:18.999Z</time>
      </trkpt>
      <trkpt lat="46.27512" lon="6.82092">
        <ele>1120.079102</ele>
        <time>2008-07-10T12:54:43.001Z</time>
      </trkpt>
      <trkpt lat="46.27534" lon="6.82064">
        <ele>1113.830688</ele>
        <time>2008-07-10T12:54:52.004Z</time>
      </trkpt>
      <trkpt lat="46.27669" lon="6.81923">
        <ele>1105.174316</ele>
        <time>2008-07-10T12:55:02.001Z</time>
      </trkpt>
      <trkpt lat="46.27677" lon="6.81903">
        <ele>1103.741699</ele>
        <time>2008-07-10T12:55:03.996Z</time>
      </trkpt>
      <trkpt lat="46.27695" lon="6.8189">
        <ele>1101.821533</ele>
        <time>2008-07-10T12:55:06.001Z</time>
      </trkpt>
      <trkpt lat="46.27731" lon="6.81869">
        <ele>1095.57312</ele>
        <time>2008-07-10T12:55:10.001Z</time>
      </trkpt>
      <trkpt lat="46.27772" lon="6.81863">
        <ele>1091.702148</ele>
        <time>2008-07-10T12:55:14.002Z</time>
      </trkpt>
      <trkpt lat="46.2786" lon="6.81863">
        <ele>1081.613281</ele>
        <time>2008-07-10T12:55:22.996Z</time>
      </trkpt>
      <trkpt lat="46.27883" lon="6.81856">
        <ele>1079.693115</ele>
        <time>2008-07-10T12:55:26.003Z</time>
      </trkpt>
      <trkpt lat="46.27896" lon="6.81848">
        <ele>1077.772827</ele>
        <time>2008-07-10T12:55:27.998Z</time>
      </trkpt>
      <trkpt lat="46.27924" lon="6.81824">
        <ele>1073.444702</ele>
        <time>2008-07-10T12:55:33.001Z</time>
      </trkpt>
      <trkpt lat="46.27946" lon="6.81809">
        <ele>1070.579468</ele>
        <time>2008-07-10T12:55:35.999Z</time>
      </trkpt>
      <trkpt lat="46.27991" lon="6.81824">
        <ele>1065.763672</ele>
        <time>2008-07-10T12:55:45.002Z</time>
      </trkpt>
      <trkpt lat="46.28066" lon="6.81723">
        <ele>1063.843506</ele>
        <time>2008-07-10T12:56:02.999Z</time>
      </trkpt>
      <trkpt lat="46.28197" lon="6.81586">
        <ele>1061.923218</ele>
        <time>2008-07-10T12:56:28.997Z</time>
      </trkpt>
      <trkpt lat="46.28263" lon="6.81476">
        <ele>1060.947876</ele>
        <time>2008-07-10T12:56:46.000Z</time>
      </trkpt>
      <trkpt lat="46.28323" lon="6.8141">
        <ele>1058.082642</ele>
        <time>2008-07-10T12:57:00.999Z</time>
      </trkpt>
      <trkpt lat="46.2839" lon="6.81313">
        <ele>1058.082642</ele>
        <time>2008-07-10T12:57:18.003Z</time>
      </trkpt>
      <trkpt lat="46.28439" lon="6.81281">
        <ele>1060.947876</ele>
        <time>2008-07-10T12:57:30.004Z</time>
      </trkpt>
      <trkpt lat="46.28446" lon="6.81273">
        <ele>1061.435547</ele>
        <time>2008-07-10T12:57:32.000Z</time>
      </trkpt>
      <trkpt lat="46.28458" lon="6.81255">
        <ele>1061.923218</ele>
        <time>2008-07-10T12:57:36.000Z</time>
      </trkpt>
      <trkpt lat="46.28523" lon="6.81114">
        <ele>1064.78833</ele>
        <time>2008-07-10T12:58:12.003Z</time>
      </trkpt>
      <trkpt lat="46.28566" lon="6.81043">
        <ele>1067.196289</ele>
        <time>2008-07-10T12:58:31.996Z</time>
      </trkpt>
      <trkpt lat="46.28579" lon="6.81028">
        <ele>1066.708496</ele>
        <time>2008-07-10T12:58:39.003Z</time>
      </trkpt>
      <trkpt lat="46.28594" lon="6.80987">
        <ele>1066.251343</ele>
        <time>2008-07-10T12:58:47.997Z</time>
      </trkpt>
      <trkpt lat="46.28667" lon="6.80897">
        <ele>1064.331055</ele>
        <time>2008-07-10T12:59:09.001Z</time>
      </trkpt>
      <trkpt lat="46.28712" lon="6.80856">
        <ele>1063.355713</ele>
        <time>2008-07-10T12:59:18.997Z</time>
      </trkpt>
      <trkpt lat="46.28828" lon="6.80822">
        <ele>1058.082642</ele>
        <time>2008-07-10T12:59:41.997Z</time>
      </trkpt>
      <trkpt lat="46.28849" lon="6.80792">
        <ele>1058.539917</ele>
        <time>2008-07-10T12:59:48.002Z</time>
      </trkpt>
      <trkpt lat="46.28875" lon="6.80715">
        <ele>1059.027588</ele>
        <time>2008-07-10T13:00:04.997Z</time>
      </trkpt>
      <trkpt lat="46.28866" lon="6.8071">
        <ele>1058.082642</ele>
        <time>2008-07-10T13:00:08.004Z</time>
      </trkpt>
      <trkpt lat="46.288" lon="6.80695">
        <ele>1053.266968</ele>
        <time>2008-07-10T13:00:18.000Z</time>
      </trkpt>
      <trkpt lat="46.28774" lon="6.80695">
        <ele>1051.34668</ele>
        <time>2008-07-10T13:00:20.998Z</time>
      </trkpt>
      <trkpt lat="46.28733" lon="6.80706">
        <ele>1049.883545</ele>
        <time>2008-07-10T13:00:26.001Z</time>
      </trkpt>
      <trkpt lat="46.28718" lon="6.80704">
        <ele>1047.963379</ele>
        <time>2008-07-10T13:00:27.996Z</time>
      </trkpt>
      <trkpt lat="46.28695" lon="6.80674">
        <ele>1047.963379</ele>
        <time>2008-07-10T13:00:32.999Z</time>
      </trkpt>
      <trkpt lat="46.28684" lon="6.80637">
        <ele>1047.506104</ele>
        <time>2008-07-10T13:00:38.002Z</time>
      </trkpt>
      <trkpt lat="46.28671" lon="6.80609">
        <ele>1047.963379</ele>
        <time>2008-07-10T13:00:45.000Z</time>
      </trkpt>
      <trkpt lat="46.28662" lon="6.80601">
        <ele>1048.938721</ele>
        <time>2008-07-10T13:00:49.000Z</time>
      </trkpt>
      <trkpt lat="46.28607" lon="6.80532">
        <ele>1056.619751</ele>
        <time>2008-07-10T13:01:24.001Z</time>
      </trkpt>
      <trkpt lat="46.28587" lon="6.80513">
        <ele>1059.515259</ele>
        <time>2008-07-10T13:01:35.000Z</time>
      </trkpt>
      <trkpt lat="46.28581" lon="6.80504">
        <ele>1060.947876</ele>
        <time>2008-07-10T13:01:39.000Z</time>
      </trkpt>
      <trkpt lat="46.28574" lon="6.805">
        <ele>1062.380371</ele>
        <time>2008-07-10T13:01:41.998Z</time>
      </trkpt>
      <trkpt lat="46.28557" lon="6.80476">
        <ele>1063.843506</ele>
        <time>2008-07-10T13:01:53.999Z</time>
      </trkpt>
      <trkpt lat="46.28519" lon="6.80472">
        <ele>1068.628784</ele>
        <time>2008-07-10T13:02:22.001Z</time>
      </trkpt>
      <trkpt lat="46.28493" lon="6.80485">
        <ele>1072.012085</ele>
        <time>2008-07-10T13:02:42.003Z</time>
      </trkpt>
      <trkpt lat="46.28435" lon="6.80521">
        <ele>1078.260498</ele>
        <time>2008-07-10T13:03:25.004Z</time>
      </trkpt>
      <trkpt lat="46.28403" lon="6.80532">
        <ele>1083.533447</ele>
        <time>2008-07-10T13:03:48.997Z</time>
      </trkpt>
      <trkpt lat="46.28392" lon="6.80543">
        <ele>1084.996582</ele>
        <time>2008-07-10T13:03:59.996Z</time>
      </trkpt>
      <trkpt lat="46.28383" lon="6.80543">
        <ele>1086.916748</ele>
        <time>2008-07-10T13:04:06.001Z</time>
      </trkpt>
      <trkpt lat="46.28375" lon="6.80532">
        <ele>1088.349365</ele>
        <time>2008-07-10T13:04:14.002Z</time>
      </trkpt>
      <trkpt lat="46.28371" lon="6.80502">
        <ele>1086.916748</ele>
        <time>2008-07-10T13:04:23.998Z</time>
      </trkpt>
      <trkpt lat="46.28371" lon="6.80483">
        <ele>1090.757324</ele>
        <time>2008-07-10T13:04:34.003Z</time>
      </trkpt>
      <trkpt lat="46.28381" lon="6.80459">
        <ele>1094.110107</ele>
        <time>2008-07-10T13:04:48.000Z</time>
      </trkpt>
      <trkpt lat="46.28381" lon="6.80455">
        <ele>1095.085449</ele>
        <time>2008-07-10T13:04:49.996Z</time>
      </trkpt>
      <trkpt lat="46.28371" lon="6.80421">
        <ele>1097.005737</ele>
        <time>2008-07-10T13:05:13.998Z</time>
      </trkpt>
      <trkpt lat="46.28347" lon="6.80412">
        <ele>1098.438232</ele>
        <time>2008-07-10T13:05:31.001Z</time>
      </trkpt>
      <trkpt lat="46.28343" lon="6.80408">
        <ele>1100.358521</ele>
        <time>2008-07-10T13:05:36.004Z</time>
      </trkpt>
      <trkpt lat="46.2833" lon="6.80406">
        <ele>1100.846191</ele>
        <time>2008-07-10T13:05:44.998Z</time>
      </trkpt>
      <trkpt lat="46.28315" lon="6.80431">
        <ele>1104.686646</ele>
        <time>2008-07-10T13:06:07.998Z</time>
      </trkpt>
      <trkpt lat="46.28317" lon="6.80434">
        <ele>1105.174316</ele>
        <time>2008-07-10T13:06:09.000Z</time>
      </trkpt>
      <trkpt lat="46.28317" lon="6.80438">
        <ele>1106.119141</ele>
        <time>2008-07-10T13:06:11.998Z</time>
      </trkpt>
      <trkpt lat="46.28334" lon="6.80479">
        <ele>1109.014771</ele>
        <time>2008-07-10T13:06:49.003Z</time>
      </trkpt>
      <trkpt lat="46.2834" lon="6.80483">
        <ele>1109.014771</ele>
        <time>2008-07-10T13:07:19.001Z</time>
      </trkpt>
      <trkpt lat="46.2834" lon="6.80489">
        <ele>1109.990112</ele>
        <time>2008-07-10T13:07:24.004Z</time>
      </trkpt>
      <trkpt lat="46.28334" lon="6.80506">
        <ele>1113.342896</ele>
        <time>2008-07-10T13:07:43.003Z</time>
      </trkpt>
      <trkpt lat="46.28325" lon="6.80513">
        <ele>1114.775513</ele>
        <time>2008-07-10T13:08:01.000Z</time>
      </trkpt>
      <trkpt lat="46.28325" lon="6.80524">
        <ele>1115.263184</ele>
        <time>2008-07-10T13:08:10.003Z</time>
      </trkpt>
      <trkpt lat="46.28317" lon="6.80549">
        <ele>1122.486938</ele>
        <time>2008-07-10T13:09:04.003Z</time>
      </trkpt>
      <trkpt lat="46.28315" lon="6.80549">
        <ele>1122.486938</ele>
        <time>2008-07-10T13:09:04.997Z</time>
      </trkpt>
      <trkpt lat="46.28308" lon="6.80558">
        <ele>1124.407227</ele>
        <time>2008-07-10T13:09:18.000Z</time>
      </trkpt>
      <trkpt lat="46.28304" lon="6.80558">
        <ele>1124.894897</ele>
        <time>2008-07-10T13:09:24.998Z</time>
      </trkpt>
      <trkpt lat="46.28302" lon="6.80556">
        <ele>1126.815063</ele>
        <time>2008-07-10T13:09:30.001Z</time>
      </trkpt>
      <trkpt lat="46.28306" lon="6.80528">
        <ele>1130.167847</ele>
        <time>2008-07-10T13:10:14.998Z</time>
      </trkpt>
      <trkpt lat="46.28306" lon="6.80515">
        <ele>1132.575806</ele>
        <time>2008-07-10T13:10:25.003Z</time>
      </trkpt>
      <trkpt lat="46.28302" lon="6.805">
        <ele>1137.391724</ele>
        <time>2008-07-10T13:11:00.997Z</time>
      </trkpt>
      <trkpt lat="46.28298" lon="6.80487">
        <ele>1142.664673</ele>
        <time>2008-07-10T13:11:31.998Z</time>
      </trkpt>
      <trkpt lat="46.28293" lon="6.80485">
        <ele>1143.152344</ele>
        <time>2008-07-10T13:11:38.003Z</time>
      </trkpt>
      <trkpt lat="46.28289" lon="6.80481">
        <ele>1143.640137</ele>
        <time>2008-07-10T13:11:43.999Z</time>
      </trkpt>
      <trkpt lat="46.28272" lon="6.80476">
        <ele>1144.584961</ele>
        <time>2008-07-10T13:12:24.002Z</time>
      </trkpt>
      <trkpt lat="46.28265" lon="6.80451">
        <ele>1146.505249</ele>
        <time>2008-07-10T13:14:47.996Z</time>
      </trkpt>
      <trkpt lat="46.28265" lon="6.80436">
        <ele>1148.913086</ele>
        <time>2008-07-10T13:15:05.000Z</time>
      </trkpt>
      <trkpt lat="46.28259" lon="6.80416">
        <ele>1150.833374</ele>
        <time>2008-07-10T13:15:18.996Z</time>
      </trkpt>
      <trkpt lat="46.28248" lon="6.80391">
        <ele>1155.161499</ele>
        <time>2008-07-10T13:15:41.996Z</time>
      </trkpt>
      <trkpt lat="46.28233" lon="6.80369">
        <ele>1158.057129</ele>
        <time>2008-07-10T13:16:04.996Z</time>
      </trkpt>
      <trkpt lat="46.28225" lon="6.80348">
        <ele>1161.409912</ele>
        <time>2008-07-10T13:16:28.998Z</time>
      </trkpt>
      <trkpt lat="46.28231" lon="6.80326">
        <ele>1165.738159</ele>
        <time>2008-07-10T13:17:02.996Z</time>
      </trkpt>
      <trkpt lat="46.28229" lon="6.80326">
        <ele>1168.145996</ele>
        <time>2008-07-10T13:17:29.996Z</time>
      </trkpt>
      <trkpt lat="46.28229" lon="6.80313">
        <ele>1171.498779</ele>
        <time>2008-07-10T13:17:49.998Z</time>
      </trkpt>
      <trkpt lat="46.28216" lon="6.80296">
        <ele>1177.747192</ele>
        <time>2008-07-10T13:18:49.000Z</time>
      </trkpt>
      <trkpt lat="46.28207" lon="6.8029">
        <ele>1183.995605</ele>
        <time>2008-07-10T13:19:29.004Z</time>
      </trkpt>
      <trkpt lat="46.2819" lon="6.80281">
        <ele>1189.756348</ele>
        <time>2008-07-10T13:20:11.003Z</time>
      </trkpt>
      <trkpt lat="46.28156" lon="6.8027">
        <ele>1196.492432</ele>
        <time>2008-07-10T13:21:12.001Z</time>
      </trkpt>
      <trkpt lat="46.28139" lon="6.8026">
        <ele>1195.547485</ele>
        <time>2008-07-10T13:21:14.999Z</time>
      </trkpt>
      <trkpt lat="46.28134" lon="6.80251">
        <ele>1196.492432</ele>
        <time>2008-07-10T13:21:25.004Z</time>
      </trkpt>
      <trkpt lat="46.28145" lon="6.80238">
        <ele>1203.716187</ele>
        <time>2008-07-10T13:22:19.998Z</time>
      </trkpt>
      <trkpt lat="46.28134" lon="6.80236">
        <ele>1207.06897</ele>
        <time>2008-07-10T13:22:38.004Z</time>
      </trkpt>
      <trkpt lat="46.28132" lon="6.80232">
        <ele>1210.452271</ele>
        <time>2008-07-10T13:23:15.000Z</time>
      </trkpt>
      <trkpt lat="46.28119" lon="6.80232">
        <ele>1219.078125</ele>
        <time>2008-07-10T13:24:25.001Z</time>
      </trkpt>
      <trkpt lat="46.28115" lon="6.80234">
        <ele>1220.053467</ele>
        <time>2008-07-10T13:24:30.997Z</time>
      </trkpt>
      <trkpt lat="46.28111" lon="6.80243">
        <ele>1220.998291</ele>
        <time>2008-07-10T13:24:41.996Z</time>
      </trkpt>
      <trkpt lat="46.281" lon="6.80225">
        <ele>1225.326538</ele>
        <time>2008-07-10T13:25:26.000Z</time>
      </trkpt>
      <trkpt lat="46.28098" lon="6.80195">
        <ele>1228.709717</ele>
        <time>2008-07-10T13:25:54.002Z</time>
      </trkpt>
      <trkpt lat="46.281" lon="6.80195">
        <ele>1229.19751</ele>
        <time>2008-07-10T13:25:55.998Z</time>
      </trkpt>
      <trkpt lat="46.28102" lon="6.80178">
        <ele>1232.550293</ele>
        <time>2008-07-10T13:26:15.999Z</time>
      </trkpt>
      <trkpt lat="46.28098" lon="6.80163">
        <ele>1233.037842</ele>
        <time>2008-07-10T13:26:25.996Z</time>
      </trkpt>
      <trkpt lat="46.28077" lon="6.80127">
        <ele>1234.470459</ele>
        <time>2008-07-10T13:26:53.998Z</time>
      </trkpt>
      <trkpt lat="46.28053" lon="6.80094">
        <ele>1237.366089</ele>
        <time>2008-07-10T13:27:20.998Z</time>
      </trkpt>
      <trkpt lat="46.27969" lon="6.80045">
        <ele>1243.614502</ele>
        <time>2008-07-10T13:28:32.002Z</time>
      </trkpt>
      <trkpt lat="46.27956" lon="6.80039">
        <ele>1243.614502</ele>
        <time>2008-07-10T13:28:41.998Z</time>
      </trkpt>
      <trkpt lat="46.27948" lon="6.80026">
        <ele>1243.614502</ele>
        <time>2008-07-10T13:28:49.999Z</time>
      </trkpt>
      <trkpt lat="46.27933" lon="6.79991">
        <ele>1245.046997</ele>
        <time>2008-07-10T13:29:06.000Z</time>
      </trkpt>
      <trkpt lat="46.27935" lon="6.79968">
        <ele>1246.967285</ele>
        <time>2008-07-10T13:29:35.998Z</time>
      </trkpt>
      <trkpt lat="46.27933" lon="6.79964">
        <ele>1250.320068</ele>
        <time>2008-07-10T13:29:57.002Z</time>
      </trkpt>
      <trkpt lat="46.27935" lon="6.79961">
        <ele>1253.215698</ele>
        <time>2008-07-10T13:30:23.000Z</time>
      </trkpt>
      <trkpt lat="46.27941" lon="6.79957">
        <ele>1259.464111</ele>
        <time>2008-07-10T13:31:03.003Z</time>
      </trkpt>
      <trkpt lat="46.27963" lon="6.79981">
        <ele>1258.031494</ele>
        <time>2008-07-10T13:32:00.001Z</time>
      </trkpt>
      <trkpt lat="46.27971" lon="6.79972">
        <ele>1258.97644</ele>
        <time>2008-07-10T13:32:08.002Z</time>
      </trkpt>
      <trkpt lat="46.27971" lon="6.79964">
        <ele>1259.951782</ele>
        <time>2008-07-10T13:32:15.000Z</time>
      </trkpt>
      <trkpt lat="46.27967" lon="6.79957">
        <ele>1261.384277</ele>
        <time>2008-07-10T13:32:23.001Z</time>
      </trkpt>
      <trkpt lat="46.27961" lon="6.79953">
        <ele>1262.359741</ele>
        <time>2008-07-10T13:32:31.001Z</time>
      </trkpt>
      <trkpt lat="46.27948" lon="6.79936">
        <ele>1264.737061</ele>
        <time>2008-07-10T13:32:54.001Z</time>
      </trkpt>
      <trkpt lat="46.27946" lon="6.79921">
        <ele>1266.200195</ele>
        <time>2008-07-10T13:33:06.002Z</time>
      </trkpt>
      <trkpt lat="46.27948" lon="6.79901">
        <ele>1270.52832</ele>
        <time>2008-07-10T13:33:30.004Z</time>
      </trkpt>
      <trkpt lat="46.2795" lon="6.79897">
        <ele>1271.473145</ele>
        <time>2008-07-10T13:33:36.000Z</time>
      </trkpt>
      <trkpt lat="46.27952" lon="6.79882">
        <ele>1269.552979</ele>
        <time>2008-07-10T13:33:53.004Z</time>
      </trkpt>
      <trkpt lat="46.27956" lon="6.79878">
        <ele>1268.120361</ele>
        <time>2008-07-10T13:33:59.000Z</time>
      </trkpt>
      <trkpt lat="46.27969" lon="6.7988">
        <ele>1268.120361</ele>
        <time>2008-07-10T13:34:01.998Z</time>
      </trkpt>
      <trkpt lat="46.27976" lon="6.79884">
        <ele>1268.120361</ele>
        <time>2008-07-10T13:34:03.000Z</time>
      </trkpt>
      <trkpt lat="46.2813" lon="6.80002">
        <ele>1260.896606</ele>
        <time>2008-07-10T13:34:24.004Z</time>
      </trkpt>
      <trkpt lat="46.2815" lon="6.79983">
        <ele>1260.439331</ele>
        <time>2008-07-10T13:34:28.004Z</time>
      </trkpt>
      <trkpt lat="46.28227" lon="6.7988">
        <ele>1260.896606</ele>
        <time>2008-07-10T13:34:39.996Z</time>
      </trkpt>
      <trkpt lat="46.28248" lon="6.79839">
        <ele>1260.439331</ele>
        <time>2008-07-10T13:34:46.001Z</time>
      </trkpt>
      <trkpt lat="46.28298" lon="6.79779">
        <ele>1261.384277</ele>
        <time>2008-07-10T13:34:58.002Z</time>
      </trkpt>
      <trkpt lat="46.28325" lon="6.79715">
        <ele>1263.792236</ele>
        <time>2008-07-10T13:35:09.001Z</time>
      </trkpt>
      <trkpt lat="46.28373" lon="6.79648">
        <ele>1262.359741</ele>
        <time>2008-07-10T13:35:22.998Z</time>
      </trkpt>
      <trkpt lat="46.28435" lon="6.79487">
        <ele>1262.816895</ele>
        <time>2008-07-10T13:35:52.996Z</time>
      </trkpt>
      <trkpt lat="46.28443" lon="6.79459">
        <ele>1262.816895</ele>
        <time>2008-07-10T13:36:01.999Z</time>
      </trkpt>
      <trkpt lat="46.28448" lon="6.79451">
        <ele>1263.304565</ele>
        <time>2008-07-10T13:36:04.997Z</time>
      </trkpt>
      <trkpt lat="46.28474" lon="6.79343">
        <ele>1266.687744</ele>
        <time>2008-07-10T13:36:36.999Z</time>
      </trkpt>
      <trkpt lat="46.28484" lon="6.79307">
        <ele>1268.120361</ele>
        <time>2008-07-10T13:36:47.998Z</time>
      </trkpt>
      <trkpt lat="46.28493" lon="6.79286">
        <ele>1270.52832</ele>
        <time>2008-07-10T13:36:58.003Z</time>
      </trkpt>
      <trkpt lat="46.28493" lon="6.79279">
        <ele>1269.552979</ele>
        <time>2008-07-10T13:36:59.999Z</time>
      </trkpt>
      <trkpt lat="46.28549" lon="6.79075">
        <ele>1272.936157</ele>
        <time>2008-07-10T13:38:06.000Z</time>
      </trkpt>
      <trkpt lat="46.28566" lon="6.78989">
        <ele>1273.881104</ele>
        <time>2008-07-10T13:38:35.998Z</time>
      </trkpt>
      <trkpt lat="46.28572" lon="6.78968">
        <ele>1273.393433</ele>
        <time>2008-07-10T13:38:42.003Z</time>
      </trkpt>
      <trkpt lat="46.28583" lon="6.78818">
        <ele>1272.936157</ele>
        <time>2008-07-10T13:39:00.000Z</time>
      </trkpt>
      <trkpt lat="46.28602" lon="6.78704">
        <ele>1272.936157</ele>
        <time>2008-07-10T13:39:16.001Z</time>
      </trkpt>
      <trkpt lat="46.28613" lon="6.78616">
        <ele>1272.448608</ele>
        <time>2008-07-10T13:39:31.000Z</time>
      </trkpt>
      <trkpt lat="46.28615" lon="6.78584">
        <ele>1271.960938</ele>
        <time>2008-07-10T13:39:36.003Z</time>
      </trkpt>
      <trkpt lat="46.28611" lon="6.78513">
        <ele>1271.473145</ele>
        <time>2008-07-10T13:39:45.999Z</time>
      </trkpt>
      <trkpt lat="46.28602" lon="6.78462">
        <ele>1268.608154</ele>
        <time>2008-07-10T13:39:54.000Z</time>
      </trkpt>
      <trkpt lat="46.28579" lon="6.78378">
        <ele>1265.224854</ele>
        <time>2008-07-10T13:40:06.001Z</time>
      </trkpt>
      <trkpt lat="46.28542" lon="6.78288">
        <ele>1261.384277</ele>
        <time>2008-07-10T13:40:19.004Z</time>
      </trkpt>
      <trkpt lat="46.28527" lon="6.78245">
        <ele>1260.439331</ele>
        <time>2008-07-10T13:40:35.999Z</time>
      </trkpt>
    </trkseg>
  </trk>
</gpx>